<?xml version="1.0" encoding="UTF-8" standalone="no" ?>
<gpx xmlns="http://www.topografix.com/GPX/1/1" xmlns:xsi="http://www.w3.org/2001/XMLSchema-instance" xsi:schemaLocation="http://www.topografix.com/GPX/1/1 http://www.topografix.com/GPX/1/1/gpx.xsd" version="1.1" creator="VisuGPX - https://www.visugpx.com">
  <metadata>
    <name>BCMR 2019 P3 90 KMS</name>
  </metadata>
  <trk>
    <name><![CDATA[9555170-BCMR 2019 P3 90 KMS]]></name>
    <trkseg>
      <trkpt lat="49.23276" lon="4.00271">
        <ele>87</ele>
        <time>2019-06-27T19:06:14Z</time>
      </trkpt>
      <trkpt lat="49.23276" lon="4.00246">
        <ele>86</ele>
        <time>2019-06-27T19:06:17Z</time>
      </trkpt>
      <trkpt lat="49.23269" lon="4.00215">
        <ele>84</ele>
        <time>2019-06-27T19:06:21Z</time>
      </trkpt>
      <trkpt lat="49.23284" lon="4.00107">
        <ele>79</ele>
        <time>2019-06-27T19:06:34Z</time>
      </trkpt>
      <trkpt lat="49.23316" lon="4.00038">
        <ele>79</ele>
        <time>2019-06-27T19:06:43Z</time>
      </trkpt>
      <trkpt lat="49.23335" lon="3.99994">
        <ele>79</ele>
        <time>2019-06-27T19:06:50Z</time>
      </trkpt>
      <trkpt lat="49.2335" lon="3.99963">
        <ele>80</ele>
        <time>2019-06-27T19:06:54Z</time>
      </trkpt>
      <trkpt lat="49.23351" lon="3.9994">
        <ele>81</ele>
        <time>2019-06-27T19:06:57Z</time>
      </trkpt>
      <trkpt lat="49.23353" lon="3.99935">
        <ele>81</ele>
        <time>2019-06-27T19:06:57Z</time>
      </trkpt>
      <trkpt lat="49.2335" lon="3.99929">
        <ele>81</ele>
        <time>2019-06-27T19:06:58Z</time>
      </trkpt>
      <trkpt lat="49.23349" lon="3.99903">
        <ele>81</ele>
        <time>2019-06-27T19:07:01Z</time>
      </trkpt>
      <trkpt lat="49.23355" lon="3.99889">
        <ele>82</ele>
        <time>2019-06-27T19:07:03Z</time>
      </trkpt>
      <trkpt lat="49.23323" lon="3.99879">
        <ele>81</ele>
        <time>2019-06-27T19:07:09Z</time>
      </trkpt>
      <trkpt lat="49.23253" lon="3.99833">
        <ele>80</ele>
        <time>2019-06-27T19:07:23Z</time>
      </trkpt>
      <trkpt lat="49.2319" lon="3.99786">
        <ele>80</ele>
        <time>2019-06-27T19:07:35Z</time>
      </trkpt>
      <trkpt lat="49.23118" lon="3.99723">
        <ele>81</ele>
        <time>2019-06-27T19:07:50Z</time>
      </trkpt>
      <trkpt lat="49.22933" lon="3.99547">
        <ele>79</ele>
        <time>2019-06-27T19:08:29Z</time>
      </trkpt>
      <trkpt lat="49.22918" lon="3.99541">
        <ele>79</ele>
        <time>2019-06-27T19:08:31Z</time>
      </trkpt>
      <trkpt lat="49.22905" lon="3.99538">
        <ele>79</ele>
        <time>2019-06-27T19:08:34Z</time>
      </trkpt>
      <trkpt lat="49.22883" lon="3.99539">
        <ele>79</ele>
        <time>2019-06-27T19:08:38Z</time>
      </trkpt>
      <trkpt lat="49.22882" lon="3.9953">
        <ele>79</ele>
        <time>2019-06-27T19:08:39Z</time>
      </trkpt>
      <trkpt lat="49.2288" lon="3.99522">
        <ele>79</ele>
        <time>2019-06-27T19:08:40Z</time>
      </trkpt>
      <trkpt lat="49.22875" lon="3.99515">
        <ele>79</ele>
        <time>2019-06-27T19:08:41Z</time>
      </trkpt>
      <trkpt lat="49.2287" lon="3.99512">
        <ele>79</ele>
        <time>2019-06-27T19:08:42Z</time>
      </trkpt>
      <trkpt lat="49.22864" lon="3.99511">
        <ele>79</ele>
        <time>2019-06-27T19:08:43Z</time>
      </trkpt>
      <trkpt lat="49.22858" lon="3.99513">
        <ele>80</ele>
        <time>2019-06-27T19:08:44Z</time>
      </trkpt>
      <trkpt lat="49.22853" lon="3.99518">
        <ele>80</ele>
        <time>2019-06-27T19:08:45Z</time>
      </trkpt>
      <trkpt lat="49.22821" lon="3.99464">
        <ele>80</ele>
        <time>2019-06-27T19:08:53Z</time>
      </trkpt>
      <trkpt lat="49.22804" lon="3.99448">
        <ele>80</ele>
        <time>2019-06-27T19:08:57Z</time>
      </trkpt>
      <trkpt lat="49.22696" lon="3.99395">
        <ele>83</ele>
        <time>2019-06-27T19:09:17Z</time>
      </trkpt>
      <trkpt lat="49.22551" lon="3.99362">
        <ele>85</ele>
        <time>2019-06-27T19:09:43Z</time>
      </trkpt>
      <trkpt lat="49.2254" lon="3.99366">
        <ele>85</ele>
        <time>2019-06-27T19:09:45Z</time>
      </trkpt>
      <trkpt lat="49.22533" lon="3.99373">
        <ele>85</ele>
        <time>2019-06-27T19:09:47Z</time>
      </trkpt>
      <trkpt lat="49.2252" lon="3.99372">
        <ele>84</ele>
        <time>2019-06-27T19:09:49Z</time>
      </trkpt>
      <trkpt lat="49.22491" lon="3.99351">
        <ele>84</ele>
        <time>2019-06-27T19:09:55Z</time>
      </trkpt>
      <trkpt lat="49.22431" lon="3.99334">
        <ele>83</ele>
        <time>2019-06-27T19:10:06Z</time>
      </trkpt>
      <trkpt lat="49.22358" lon="3.9929">
        <ele>83</ele>
        <time>2019-06-27T19:10:20Z</time>
      </trkpt>
      <trkpt lat="49.22301" lon="3.99248">
        <ele>84</ele>
        <time>2019-06-27T19:10:31Z</time>
      </trkpt>
      <trkpt lat="49.22189" lon="3.99179">
        <ele>84</ele>
        <time>2019-06-27T19:10:52Z</time>
      </trkpt>
      <trkpt lat="49.22128" lon="3.99147">
        <ele>83</ele>
        <time>2019-06-27T19:11:04Z</time>
      </trkpt>
      <trkpt lat="49.22113" lon="3.99134">
        <ele>83</ele>
        <time>2019-06-27T19:11:07Z</time>
      </trkpt>
      <trkpt lat="49.22073" lon="3.99083">
        <ele>82</ele>
        <time>2019-06-27T19:11:16Z</time>
      </trkpt>
      <trkpt lat="49.22024" lon="3.9901">
        <ele>82</ele>
        <time>2019-06-27T19:11:28Z</time>
      </trkpt>
      <trkpt lat="49.21979" lon="3.98831">
        <ele>80</ele>
        <time>2019-06-27T19:11:51Z</time>
      </trkpt>
      <trkpt lat="49.21968" lon="3.98799">
        <ele>81</ele>
        <time>2019-06-27T19:11:55Z</time>
      </trkpt>
      <trkpt lat="49.21946" lon="3.98753">
        <ele>81</ele>
        <time>2019-06-27T19:12:01Z</time>
      </trkpt>
      <trkpt lat="49.22005" lon="3.98605">
        <ele>83</ele>
        <time>2019-06-27T19:12:22Z</time>
      </trkpt>
      <trkpt lat="49.22031" lon="3.9856">
        <ele>84</ele>
        <time>2019-06-27T19:12:29Z</time>
      </trkpt>
      <trkpt lat="49.22065" lon="3.98487">
        <ele>82</ele>
        <time>2019-06-27T19:12:39Z</time>
      </trkpt>
      <trkpt lat="49.22081" lon="3.98446">
        <ele>82</ele>
        <time>2019-06-27T19:12:45Z</time>
      </trkpt>
      <trkpt lat="49.22115" lon="3.98434">
        <ele>83</ele>
        <time>2019-06-27T19:12:51Z</time>
      </trkpt>
      <trkpt lat="49.22181" lon="3.9842">
        <ele>84</ele>
        <time>2019-06-27T19:13:03Z</time>
      </trkpt>
      <trkpt lat="49.22189" lon="3.98415">
        <ele>84</ele>
        <time>2019-06-27T19:13:04Z</time>
      </trkpt>
      <trkpt lat="49.22196" lon="3.98407">
        <ele>84</ele>
        <time>2019-06-27T19:13:06Z</time>
      </trkpt>
      <trkpt lat="49.222" lon="3.98395">
        <ele>84</ele>
        <time>2019-06-27T19:13:07Z</time>
      </trkpt>
      <trkpt lat="49.22203" lon="3.98372">
        <ele>84</ele>
        <time>2019-06-27T19:13:10Z</time>
      </trkpt>
      <trkpt lat="49.22211" lon="3.9805">
        <ele>89</ele>
        <time>2019-06-27T19:13:47Z</time>
      </trkpt>
      <trkpt lat="49.22226" lon="3.9776">
        <ele>100</ele>
        <time>2019-06-27T19:14:21Z</time>
      </trkpt>
      <trkpt lat="49.22241" lon="3.97638">
        <ele>102</ele>
        <time>2019-06-27T19:14:36Z</time>
      </trkpt>
      <trkpt lat="49.22258" lon="3.97536">
        <ele>103</ele>
        <time>2019-06-27T19:14:48Z</time>
      </trkpt>
      <trkpt lat="49.22256" lon="3.97494">
        <ele>103</ele>
        <time>2019-06-27T19:14:53Z</time>
      </trkpt>
      <trkpt lat="49.22234" lon="3.97347">
        <ele>98</ele>
        <time>2019-06-27T19:15:10Z</time>
      </trkpt>
      <trkpt lat="49.22217" lon="3.97252">
        <ele>95</ele>
        <time>2019-06-27T19:15:22Z</time>
      </trkpt>
      <trkpt lat="49.22207" lon="3.97205">
        <ele>94</ele>
        <time>2019-06-27T19:15:28Z</time>
      </trkpt>
      <trkpt lat="49.22198" lon="3.97173">
        <ele>94</ele>
        <time>2019-06-27T19:15:32Z</time>
      </trkpt>
      <trkpt lat="49.22165" lon="3.97092">
        <ele>94</ele>
        <time>2019-06-27T19:15:43Z</time>
      </trkpt>
      <trkpt lat="49.22157" lon="3.97067">
        <ele>94</ele>
        <time>2019-06-27T19:15:46Z</time>
      </trkpt>
      <trkpt lat="49.22142" lon="3.96993">
        <ele>94</ele>
        <time>2019-06-27T19:15:55Z</time>
      </trkpt>
      <trkpt lat="49.22083" lon="3.96411">
        <ele>93</ele>
        <time>2019-06-27T19:17:03Z</time>
      </trkpt>
      <trkpt lat="49.22079" lon="3.96352">
        <ele>95</ele>
        <time>2019-06-27T19:17:10Z</time>
      </trkpt>
      <trkpt lat="49.22084" lon="3.9635">
        <ele>95</ele>
        <time>2019-06-27T19:17:11Z</time>
      </trkpt>
      <trkpt lat="49.22086" lon="3.96344">
        <ele>95</ele>
        <time>2019-06-27T19:17:12Z</time>
      </trkpt>
      <trkpt lat="49.22084" lon="3.96333">
        <ele>95</ele>
        <time>2019-06-27T19:17:13Z</time>
      </trkpt>
      <trkpt lat="49.22082" lon="3.96331">
        <ele>95</ele>
        <time>2019-06-27T19:17:14Z</time>
      </trkpt>
      <trkpt lat="49.22091" lon="3.96306">
        <ele>95</ele>
        <time>2019-06-27T19:17:17Z</time>
      </trkpt>
      <trkpt lat="49.22111" lon="3.96263">
        <ele>95</ele>
        <time>2019-06-27T19:17:23Z</time>
      </trkpt>
      <trkpt lat="49.22063" lon="3.96184">
        <ele>95</ele>
        <time>2019-06-27T19:17:36Z</time>
      </trkpt>
      <trkpt lat="49.22016" lon="3.96115">
        <ele>94</ele>
        <time>2019-06-27T19:17:47Z</time>
      </trkpt>
      <trkpt lat="49.21954" lon="3.96035">
        <ele>95</ele>
        <time>2019-06-27T19:18:02Z</time>
      </trkpt>
      <trkpt lat="49.2193" lon="3.96006">
        <ele>95</ele>
        <time>2019-06-27T19:18:07Z</time>
      </trkpt>
      <trkpt lat="49.21916" lon="3.96">
        <ele>95</ele>
        <time>2019-06-27T19:18:10Z</time>
      </trkpt>
      <trkpt lat="49.21892" lon="3.95999">
        <ele>95</ele>
        <time>2019-06-27T19:18:14Z</time>
      </trkpt>
      <trkpt lat="49.21869" lon="3.96003">
        <ele>96</ele>
        <time>2019-06-27T19:18:18Z</time>
      </trkpt>
      <trkpt lat="49.21859" lon="3.96013">
        <ele>96</ele>
        <time>2019-06-27T19:18:20Z</time>
      </trkpt>
      <trkpt lat="49.21788" lon="3.96034">
        <ele>97</ele>
        <time>2019-06-27T19:18:33Z</time>
      </trkpt>
      <trkpt lat="49.21762" lon="3.9602">
        <ele>97</ele>
        <time>2019-06-27T19:18:38Z</time>
      </trkpt>
      <trkpt lat="49.21736" lon="3.95991">
        <ele>97</ele>
        <time>2019-06-27T19:18:44Z</time>
      </trkpt>
      <trkpt lat="49.21709" lon="3.9595">
        <ele>97</ele>
        <time>2019-06-27T19:18:50Z</time>
      </trkpt>
      <trkpt lat="49.21702" lon="3.9593">
        <ele>97</ele>
        <time>2019-06-27T19:18:53Z</time>
      </trkpt>
      <trkpt lat="49.21696" lon="3.959">
        <ele>97</ele>
        <time>2019-06-27T19:18:57Z</time>
      </trkpt>
      <trkpt lat="49.21687" lon="3.95874">
        <ele>98</ele>
        <time>2019-06-27T19:19:00Z</time>
      </trkpt>
      <trkpt lat="49.21677" lon="3.95853">
        <ele>98</ele>
        <time>2019-06-27T19:19:03Z</time>
      </trkpt>
      <trkpt lat="49.21664" lon="3.95835">
        <ele>98</ele>
        <time>2019-06-27T19:19:06Z</time>
      </trkpt>
      <trkpt lat="49.21635" lon="3.95805">
        <ele>98</ele>
        <time>2019-06-27T19:19:13Z</time>
      </trkpt>
      <trkpt lat="49.2158" lon="3.95756">
        <ele>100</ele>
        <time>2019-06-27T19:19:24Z</time>
      </trkpt>
      <trkpt lat="49.21445" lon="3.95628">
        <ele>99</ele>
        <time>2019-06-27T19:19:52Z</time>
      </trkpt>
      <trkpt lat="49.21397" lon="3.95569">
        <ele>99</ele>
        <time>2019-06-27T19:20:03Z</time>
      </trkpt>
      <trkpt lat="49.21183" lon="3.95288">
        <ele>102</ele>
        <time>2019-06-27T19:20:53Z</time>
      </trkpt>
      <trkpt lat="49.21134" lon="3.95234">
        <ele>103</ele>
        <time>2019-06-27T19:21:04Z</time>
      </trkpt>
      <trkpt lat="49.21029" lon="3.95133">
        <ele>105</ele>
        <time>2019-06-27T19:21:26Z</time>
      </trkpt>
      <trkpt lat="49.2098" lon="3.95073">
        <ele>105</ele>
        <time>2019-06-27T19:21:37Z</time>
      </trkpt>
      <trkpt lat="49.2084" lon="3.94868">
        <ele>109</ele>
        <time>2019-06-27T19:22:12Z</time>
      </trkpt>
      <trkpt lat="49.20773" lon="3.94772">
        <ele>109</ele>
        <time>2019-06-27T19:22:28Z</time>
      </trkpt>
      <trkpt lat="49.20705" lon="3.94654">
        <ele>110</ele>
        <time>2019-06-27T19:22:46Z</time>
      </trkpt>
      <trkpt lat="49.20583" lon="3.94475">
        <ele>116</ele>
        <time>2019-06-27T19:23:16Z</time>
      </trkpt>
      <trkpt lat="49.20385" lon="3.94235">
        <ele>124</ele>
        <time>2019-06-27T19:24:01Z</time>
      </trkpt>
      <trkpt lat="49.20357" lon="3.942">
        <ele>127</ele>
        <time>2019-06-27T19:24:08Z</time>
      </trkpt>
      <trkpt lat="49.2031" lon="3.94135">
        <ele>131</ele>
        <time>2019-06-27T19:24:19Z</time>
      </trkpt>
      <trkpt lat="49.20265" lon="3.94077">
        <ele>135</ele>
        <time>2019-06-27T19:24:30Z</time>
      </trkpt>
      <trkpt lat="49.20151" lon="3.93959">
        <ele>147</ele>
        <time>2019-06-27T19:24:54Z</time>
      </trkpt>
      <trkpt lat="49.20121" lon="3.93906">
        <ele>148</ele>
        <time>2019-06-27T19:25:02Z</time>
      </trkpt>
      <trkpt lat="49.20105" lon="3.9385">
        <ele>149</ele>
        <time>2019-06-27T19:25:09Z</time>
      </trkpt>
      <trkpt lat="49.20104" lon="3.93806">
        <ele>150</ele>
        <time>2019-06-27T19:25:14Z</time>
      </trkpt>
      <trkpt lat="49.2011" lon="3.93712">
        <ele>155</ele>
        <time>2019-06-27T19:25:25Z</time>
      </trkpt>
      <trkpt lat="49.20111" lon="3.93678">
        <ele>158</ele>
        <time>2019-06-27T19:25:29Z</time>
      </trkpt>
      <trkpt lat="49.2012" lon="3.93657">
        <ele>159</ele>
        <time>2019-06-27T19:25:32Z</time>
      </trkpt>
      <trkpt lat="49.20158" lon="3.93607">
        <ele>162</ele>
        <time>2019-06-27T19:25:41Z</time>
      </trkpt>
      <trkpt lat="49.20169" lon="3.9361">
        <ele>161</ele>
        <time>2019-06-27T19:25:43Z</time>
      </trkpt>
      <trkpt lat="49.20178" lon="3.93604">
        <ele>162</ele>
        <time>2019-06-27T19:25:45Z</time>
      </trkpt>
      <trkpt lat="49.20194" lon="3.93588">
        <ele>164</ele>
        <time>2019-06-27T19:25:48Z</time>
      </trkpt>
      <trkpt lat="49.20216" lon="3.93555">
        <ele>165</ele>
        <time>2019-06-27T19:25:54Z</time>
      </trkpt>
      <trkpt lat="49.20221" lon="3.93515">
        <ele>168</ele>
        <time>2019-06-27T19:25:58Z</time>
      </trkpt>
      <trkpt lat="49.20219" lon="3.93474">
        <ele>170</ele>
        <time>2019-06-27T19:26:03Z</time>
      </trkpt>
      <trkpt lat="49.20131" lon="3.9346">
        <ele>172</ele>
        <time>2019-06-27T19:26:19Z</time>
      </trkpt>
      <trkpt lat="49.201" lon="3.93448">
        <ele>174</ele>
        <time>2019-06-27T19:26:25Z</time>
      </trkpt>
      <trkpt lat="49.20084" lon="3.93429">
        <ele>176</ele>
        <time>2019-06-27T19:26:28Z</time>
      </trkpt>
      <trkpt lat="49.20076" lon="3.93398">
        <ele>179</ele>
        <time>2019-06-27T19:26:32Z</time>
      </trkpt>
      <trkpt lat="49.20073" lon="3.93366">
        <ele>183</ele>
        <time>2019-06-27T19:26:36Z</time>
      </trkpt>
      <trkpt lat="49.20076" lon="3.93341">
        <ele>185</ele>
        <time>2019-06-27T19:26:39Z</time>
      </trkpt>
      <trkpt lat="49.20079" lon="3.93323">
        <ele>187</ele>
        <time>2019-06-27T19:26:41Z</time>
      </trkpt>
      <trkpt lat="49.20094" lon="3.93293">
        <ele>190</ele>
        <time>2019-06-27T19:26:45Z</time>
      </trkpt>
      <trkpt lat="49.20109" lon="3.93268">
        <ele>193</ele>
        <time>2019-06-27T19:26:49Z</time>
      </trkpt>
      <trkpt lat="49.20154" lon="3.93201">
        <ele>197</ele>
        <time>2019-06-27T19:27:01Z</time>
      </trkpt>
      <trkpt lat="49.20177" lon="3.93146">
        <ele>202</ele>
        <time>2019-06-27T19:27:08Z</time>
      </trkpt>
      <trkpt lat="49.20203" lon="3.93055">
        <ele>210</ele>
        <time>2019-06-27T19:27:20Z</time>
      </trkpt>
      <trkpt lat="49.20212" lon="3.93016">
        <ele>212</ele>
        <time>2019-06-27T19:27:25Z</time>
      </trkpt>
      <trkpt lat="49.20212" lon="3.92975">
        <ele>213</ele>
        <time>2019-06-27T19:27:29Z</time>
      </trkpt>
      <trkpt lat="49.20207" lon="3.92916">
        <ele>215</ele>
        <time>2019-06-27T19:27:36Z</time>
      </trkpt>
      <trkpt lat="49.20207" lon="3.92895">
        <ele>214</ele>
        <time>2019-06-27T19:27:39Z</time>
      </trkpt>
      <trkpt lat="49.20209" lon="3.92862">
        <ele>213</ele>
        <time>2019-06-27T19:27:42Z</time>
      </trkpt>
      <trkpt lat="49.20216" lon="3.92835">
        <ele>213</ele>
        <time>2019-06-27T19:27:46Z</time>
      </trkpt>
      <trkpt lat="49.20232" lon="3.92799">
        <ele>211</ele>
        <time>2019-06-27T19:27:51Z</time>
      </trkpt>
      <trkpt lat="49.20362" lon="3.92551">
        <ele>194</ele>
        <time>2019-06-27T19:28:28Z</time>
      </trkpt>
      <trkpt lat="49.20405" lon="3.92472">
        <ele>191</ele>
        <time>2019-06-27T19:28:40Z</time>
      </trkpt>
      <trkpt lat="49.20451" lon="3.92376">
        <ele>186</ele>
        <time>2019-06-27T19:28:54Z</time>
      </trkpt>
      <trkpt lat="49.2047" lon="3.92328">
        <ele>184</ele>
        <time>2019-06-27T19:29:00Z</time>
      </trkpt>
      <trkpt lat="49.20482" lon="3.92267">
        <ele>181</ele>
        <time>2019-06-27T19:29:08Z</time>
      </trkpt>
      <trkpt lat="49.20514" lon="3.92046">
        <ele>170</ele>
        <time>2019-06-27T19:29:34Z</time>
      </trkpt>
      <trkpt lat="49.20522" lon="3.92011">
        <ele>169</ele>
        <time>2019-06-27T19:29:38Z</time>
      </trkpt>
      <trkpt lat="49.20524" lon="3.91972">
        <ele>168</ele>
        <time>2019-06-27T19:29:43Z</time>
      </trkpt>
      <trkpt lat="49.20578" lon="3.91562">
        <ele>155</ele>
        <time>2019-06-27T19:30:31Z</time>
      </trkpt>
      <trkpt lat="49.20626" lon="3.91259">
        <ele>158</ele>
        <time>2019-06-27T19:31:08Z</time>
      </trkpt>
      <trkpt lat="49.20635" lon="3.91209">
        <ele>156</ele>
        <time>2019-06-27T19:31:14Z</time>
      </trkpt>
      <trkpt lat="49.2064" lon="3.91163">
        <ele>155</ele>
        <time>2019-06-27T19:31:19Z</time>
      </trkpt>
      <trkpt lat="49.20641" lon="3.9111">
        <ele>154</ele>
        <time>2019-06-27T19:31:25Z</time>
      </trkpt>
      <trkpt lat="49.20637" lon="3.91057">
        <ele>152</ele>
        <time>2019-06-27T19:31:31Z</time>
      </trkpt>
      <trkpt lat="49.20593" lon="3.90736">
        <ele>140</ele>
        <time>2019-06-27T19:32:10Z</time>
      </trkpt>
      <trkpt lat="49.20585" lon="3.90698">
        <ele>139</ele>
        <time>2019-06-27T19:32:14Z</time>
      </trkpt>
      <trkpt lat="49.20572" lon="3.90658">
        <ele>137</ele>
        <time>2019-06-27T19:32:19Z</time>
      </trkpt>
      <trkpt lat="49.20512" lon="3.90506">
        <ele>135</ele>
        <time>2019-06-27T19:32:40Z</time>
      </trkpt>
      <trkpt lat="49.20499" lon="3.90465">
        <ele>135</ele>
        <time>2019-06-27T19:32:45Z</time>
      </trkpt>
      <trkpt lat="49.20491" lon="3.90414">
        <ele>136</ele>
        <time>2019-06-27T19:32:51Z</time>
      </trkpt>
      <trkpt lat="49.20488" lon="3.90359">
        <ele>135</ele>
        <time>2019-06-27T19:32:58Z</time>
      </trkpt>
      <trkpt lat="49.20493" lon="3.90116">
        <ele>131</ele>
        <time>2019-06-27T19:33:26Z</time>
      </trkpt>
      <trkpt lat="49.2052" lon="3.89881">
        <ele>129</ele>
        <time>2019-06-27T19:33:54Z</time>
      </trkpt>
      <trkpt lat="49.2053" lon="3.89785">
        <ele>129</ele>
        <time>2019-06-27T19:34:05Z</time>
      </trkpt>
      <trkpt lat="49.20529" lon="3.8974">
        <ele>129</ele>
        <time>2019-06-27T19:34:10Z</time>
      </trkpt>
      <trkpt lat="49.2052" lon="3.89691">
        <ele>129</ele>
        <time>2019-06-27T19:34:16Z</time>
      </trkpt>
      <trkpt lat="49.2034" lon="3.88834">
        <ele>148</ele>
        <time>2019-06-27T19:36:01Z</time>
      </trkpt>
      <trkpt lat="49.20151" lon="3.87905">
        <ele>174</ele>
        <time>2019-06-27T19:37:54Z</time>
      </trkpt>
      <trkpt lat="49.20151" lon="3.87832">
        <ele>177</ele>
        <time>2019-06-27T19:38:03Z</time>
      </trkpt>
      <trkpt lat="49.20157" lon="3.87767">
        <ele>180</ele>
        <time>2019-06-27T19:38:10Z</time>
      </trkpt>
      <trkpt lat="49.20222" lon="3.8721">
        <ele>181</ele>
        <time>2019-06-27T19:39:16Z</time>
      </trkpt>
      <trkpt lat="49.20237" lon="3.87081">
        <ele>179</ele>
        <time>2019-06-27T19:39:31Z</time>
      </trkpt>
      <trkpt lat="49.20241" lon="3.8703">
        <ele>179</ele>
        <time>2019-06-27T19:39:37Z</time>
      </trkpt>
      <trkpt lat="49.20241" lon="3.86987">
        <ele>179</ele>
        <time>2019-06-27T19:39:42Z</time>
      </trkpt>
      <trkpt lat="49.20218" lon="3.86789">
        <ele>180</ele>
        <time>2019-06-27T19:40:06Z</time>
      </trkpt>
      <trkpt lat="49.20212" lon="3.8676">
        <ele>180</ele>
        <time>2019-06-27T19:40:09Z</time>
      </trkpt>
      <trkpt lat="49.20198" lon="3.86729">
        <ele>179</ele>
        <time>2019-06-27T19:40:14Z</time>
      </trkpt>
      <trkpt lat="49.20173" lon="3.8669">
        <ele>179</ele>
        <time>2019-06-27T19:40:20Z</time>
      </trkpt>
      <trkpt lat="49.20134" lon="3.86661">
        <ele>176</ele>
        <time>2019-06-27T19:40:28Z</time>
      </trkpt>
      <trkpt lat="49.19929" lon="3.86556">
        <ele>161</ele>
        <time>2019-06-27T19:41:06Z</time>
      </trkpt>
      <trkpt lat="49.19403" lon="3.86264">
        <ele>146</ele>
        <time>2019-06-27T19:42:46Z</time>
      </trkpt>
      <trkpt lat="49.19367" lon="3.86241">
        <ele>146</ele>
        <time>2019-06-27T19:42:53Z</time>
      </trkpt>
      <trkpt lat="49.19332" lon="3.86212">
        <ele>146</ele>
        <time>2019-06-27T19:43:00Z</time>
      </trkpt>
      <trkpt lat="49.1852" lon="3.85482">
        <ele>117</ele>
        <time>2019-06-27T19:45:47Z</time>
      </trkpt>
      <trkpt lat="49.18489" lon="3.85445">
        <ele>119</ele>
        <time>2019-06-27T19:45:54Z</time>
      </trkpt>
      <trkpt lat="49.18451" lon="3.85391">
        <ele>122</ele>
        <time>2019-06-27T19:46:03Z</time>
      </trkpt>
      <trkpt lat="49.18428" lon="3.85345">
        <ele>125</ele>
        <time>2019-06-27T19:46:10Z</time>
      </trkpt>
      <trkpt lat="49.1841" lon="3.85304">
        <ele>127</ele>
        <time>2019-06-27T19:46:16Z</time>
      </trkpt>
      <trkpt lat="49.18397" lon="3.85262">
        <ele>128</ele>
        <time>2019-06-27T19:46:21Z</time>
      </trkpt>
      <trkpt lat="49.18394" lon="3.8522">
        <ele>130</ele>
        <time>2019-06-27T19:46:26Z</time>
      </trkpt>
      <trkpt lat="49.18394" lon="3.85178">
        <ele>132</ele>
        <time>2019-06-27T19:46:31Z</time>
      </trkpt>
      <trkpt lat="49.18397" lon="3.85163">
        <ele>132</ele>
        <time>2019-06-27T19:46:33Z</time>
      </trkpt>
      <trkpt lat="49.18393" lon="3.85146">
        <ele>132</ele>
        <time>2019-06-27T19:46:35Z</time>
      </trkpt>
      <trkpt lat="49.18389" lon="3.8514">
        <ele>132</ele>
        <time>2019-06-27T19:46:36Z</time>
      </trkpt>
      <trkpt lat="49.18381" lon="3.85135">
        <ele>133</ele>
        <time>2019-06-27T19:46:38Z</time>
      </trkpt>
      <trkpt lat="49.18376" lon="3.85134">
        <ele>133</ele>
        <time>2019-06-27T19:46:38Z</time>
      </trkpt>
      <trkpt lat="49.18365" lon="3.85141">
        <ele>134</ele>
        <time>2019-06-27T19:46:41Z</time>
      </trkpt>
      <trkpt lat="49.18328" lon="3.85216">
        <ele>134</ele>
        <time>2019-06-27T19:46:52Z</time>
      </trkpt>
      <trkpt lat="49.17876" lon="3.85769">
        <ele>141</ele>
        <time>2019-06-27T19:48:34Z</time>
      </trkpt>
      <trkpt lat="49.17765" lon="3.85899">
        <ele>133</ele>
        <time>2019-06-27T19:48:59Z</time>
      </trkpt>
      <trkpt lat="49.1775" lon="3.85921">
        <ele>132</ele>
        <time>2019-06-27T19:49:03Z</time>
      </trkpt>
      <trkpt lat="49.17624" lon="3.86151">
        <ele>133</ele>
        <time>2019-06-27T19:49:38Z</time>
      </trkpt>
      <trkpt lat="49.17576" lon="3.86273">
        <ele>134</ele>
        <time>2019-06-27T19:49:55Z</time>
      </trkpt>
      <trkpt lat="49.17563" lon="3.86299">
        <ele>135</ele>
        <time>2019-06-27T19:49:58Z</time>
      </trkpt>
      <trkpt lat="49.17548" lon="3.86325">
        <ele>136</ele>
        <time>2019-06-27T19:50:02Z</time>
      </trkpt>
      <trkpt lat="49.17524" lon="3.86358">
        <ele>137</ele>
        <time>2019-06-27T19:50:08Z</time>
      </trkpt>
      <trkpt lat="49.17518" lon="3.86372">
        <ele>137</ele>
        <time>2019-06-27T19:50:10Z</time>
      </trkpt>
      <trkpt lat="49.17497" lon="3.86445">
        <ele>138</ele>
        <time>2019-06-27T19:50:19Z</time>
      </trkpt>
      <trkpt lat="49.17469" lon="3.86511">
        <ele>138</ele>
        <time>2019-06-27T19:50:28Z</time>
      </trkpt>
      <trkpt lat="49.17454" lon="3.867">
        <ele>131</ele>
        <time>2019-06-27T19:50:51Z</time>
      </trkpt>
      <trkpt lat="49.1746" lon="3.8677">
        <ele>129</ele>
        <time>2019-06-27T19:50:59Z</time>
      </trkpt>
      <trkpt lat="49.1746" lon="3.86793">
        <ele>128</ele>
        <time>2019-06-27T19:51:02Z</time>
      </trkpt>
      <trkpt lat="49.17433" lon="3.87039">
        <ele>120</ele>
        <time>2019-06-27T19:51:31Z</time>
      </trkpt>
      <trkpt lat="49.17411" lon="3.87204">
        <ele>123</ele>
        <time>2019-06-27T19:51:50Z</time>
      </trkpt>
      <trkpt lat="49.17387" lon="3.87418">
        <ele>132</ele>
        <time>2019-06-27T19:52:15Z</time>
      </trkpt>
      <trkpt lat="49.17375" lon="3.87494">
        <ele>136</ele>
        <time>2019-06-27T19:52:24Z</time>
      </trkpt>
      <trkpt lat="49.17276" lon="3.87914">
        <ele>153</ele>
        <time>2019-06-27T19:53:16Z</time>
      </trkpt>
      <trkpt lat="49.1727" lon="3.87936">
        <ele>154</ele>
        <time>2019-06-27T19:53:19Z</time>
      </trkpt>
      <trkpt lat="49.17262" lon="3.87956">
        <ele>155</ele>
        <time>2019-06-27T19:53:22Z</time>
      </trkpt>
      <trkpt lat="49.16859" lon="3.88714">
        <ele>155</ele>
        <time>2019-06-27T19:55:16Z</time>
      </trkpt>
      <trkpt lat="49.16844" lon="3.88747">
        <ele>155</ele>
        <time>2019-06-27T19:55:20Z</time>
      </trkpt>
      <trkpt lat="49.16813" lon="3.88827">
        <ele>151</ele>
        <time>2019-06-27T19:55:31Z</time>
      </trkpt>
      <trkpt lat="49.16666" lon="3.89216">
        <ele>145</ele>
        <time>2019-06-27T19:56:23Z</time>
      </trkpt>
      <trkpt lat="49.16659" lon="3.8923">
        <ele>145</ele>
        <time>2019-06-27T19:56:25Z</time>
      </trkpt>
      <trkpt lat="49.16642" lon="3.89289">
        <ele>143</ele>
        <time>2019-06-27T19:56:33Z</time>
      </trkpt>
      <trkpt lat="49.16636" lon="3.89321">
        <ele>142</ele>
        <time>2019-06-27T19:56:37Z</time>
      </trkpt>
      <trkpt lat="49.16604" lon="3.89538">
        <ele>141</ele>
        <time>2019-06-27T19:57:03Z</time>
      </trkpt>
      <trkpt lat="49.16581" lon="3.89634">
        <ele>144</ele>
        <time>2019-06-27T19:57:15Z</time>
      </trkpt>
      <trkpt lat="49.16417" lon="3.90266">
        <ele>156</ele>
        <time>2019-06-27T19:58:34Z</time>
      </trkpt>
      <trkpt lat="49.1641" lon="3.90296">
        <ele>157</ele>
        <time>2019-06-27T19:58:37Z</time>
      </trkpt>
      <trkpt lat="49.16399" lon="3.90395">
        <ele>157</ele>
        <time>2019-06-27T19:58:49Z</time>
      </trkpt>
      <trkpt lat="49.16389" lon="3.90443">
        <ele>155</ele>
        <time>2019-06-27T19:58:55Z</time>
      </trkpt>
      <trkpt lat="49.16376" lon="3.90479">
        <ele>153</ele>
        <time>2019-06-27T19:59:00Z</time>
      </trkpt>
      <trkpt lat="49.16347" lon="3.90531">
        <ele>151</ele>
        <time>2019-06-27T19:59:08Z</time>
      </trkpt>
      <trkpt lat="49.16322" lon="3.90567">
        <ele>150</ele>
        <time>2019-06-27T19:59:14Z</time>
      </trkpt>
      <trkpt lat="49.16291" lon="3.90596">
        <ele>150</ele>
        <time>2019-06-27T19:59:20Z</time>
      </trkpt>
      <trkpt lat="49.16245" lon="3.9063">
        <ele>152</ele>
        <time>2019-06-27T19:59:29Z</time>
      </trkpt>
      <trkpt lat="49.16214" lon="3.90657">
        <ele>155</ele>
        <time>2019-06-27T19:59:36Z</time>
      </trkpt>
      <trkpt lat="49.16186" lon="3.90686">
        <ele>157</ele>
        <time>2019-06-27T19:59:42Z</time>
      </trkpt>
      <trkpt lat="49.16162" lon="3.90717">
        <ele>159</ele>
        <time>2019-06-27T19:59:47Z</time>
      </trkpt>
      <trkpt lat="49.16033" lon="3.90926">
        <ele>161</ele>
        <time>2019-06-27T20:00:21Z</time>
      </trkpt>
      <trkpt lat="49.16024" lon="3.90936">
        <ele>161</ele>
        <time>2019-06-27T20:00:23Z</time>
      </trkpt>
      <trkpt lat="49.16007" lon="3.90951">
        <ele>160</ele>
        <time>2019-06-27T20:00:26Z</time>
      </trkpt>
      <trkpt lat="49.15974" lon="3.90965">
        <ele>159</ele>
        <time>2019-06-27T20:00:32Z</time>
      </trkpt>
      <trkpt lat="49.15946" lon="3.90967">
        <ele>157</ele>
        <time>2019-06-27T20:00:37Z</time>
      </trkpt>
      <trkpt lat="49.15763" lon="3.90915">
        <ele>146</ele>
        <time>2019-06-27T20:01:10Z</time>
      </trkpt>
      <trkpt lat="49.15747" lon="3.90913">
        <ele>145</ele>
        <time>2019-06-27T20:01:13Z</time>
      </trkpt>
      <trkpt lat="49.15733" lon="3.90915">
        <ele>144</ele>
        <time>2019-06-27T20:01:16Z</time>
      </trkpt>
      <trkpt lat="49.15676" lon="3.90929">
        <ele>143</ele>
        <time>2019-06-27T20:01:26Z</time>
      </trkpt>
      <trkpt lat="49.15497" lon="3.90976">
        <ele>142</ele>
        <time>2019-06-27T20:01:58Z</time>
      </trkpt>
      <trkpt lat="49.15465" lon="3.90992">
        <ele>143</ele>
        <time>2019-06-27T20:02:04Z</time>
      </trkpt>
      <trkpt lat="49.15444" lon="3.91006">
        <ele>143</ele>
        <time>2019-06-27T20:02:08Z</time>
      </trkpt>
      <trkpt lat="49.15073" lon="3.91333">
        <ele>151</ele>
        <time>2019-06-27T20:03:25Z</time>
      </trkpt>
      <trkpt lat="49.15011" lon="3.91385">
        <ele>152</ele>
        <time>2019-06-27T20:03:37Z</time>
      </trkpt>
      <trkpt lat="49.14927" lon="3.91451">
        <ele>154</ele>
        <time>2019-06-27T20:03:54Z</time>
      </trkpt>
      <trkpt lat="49.14882" lon="3.91482">
        <ele>158</ele>
        <time>2019-06-27T20:04:03Z</time>
      </trkpt>
      <trkpt lat="49.14864" lon="3.9149">
        <ele>160</ele>
        <time>2019-06-27T20:04:06Z</time>
      </trkpt>
      <trkpt lat="49.14457" lon="3.9159">
        <ele>177</ele>
        <time>2019-06-27T20:05:19Z</time>
      </trkpt>
      <trkpt lat="49.1443" lon="3.91595">
        <ele>177</ele>
        <time>2019-06-27T20:05:24Z</time>
      </trkpt>
      <trkpt lat="49.14406" lon="3.91594">
        <ele>178</ele>
        <time>2019-06-27T20:05:29Z</time>
      </trkpt>
      <trkpt lat="49.14389" lon="3.91591">
        <ele>178</ele>
        <time>2019-06-27T20:05:32Z</time>
      </trkpt>
      <trkpt lat="49.14365" lon="3.91582">
        <ele>178</ele>
        <time>2019-06-27T20:05:36Z</time>
      </trkpt>
      <trkpt lat="49.14242" lon="3.91524">
        <ele>184</ele>
        <time>2019-06-27T20:05:59Z</time>
      </trkpt>
      <trkpt lat="49.14217" lon="3.91516">
        <ele>185</ele>
        <time>2019-06-27T20:06:03Z</time>
      </trkpt>
      <trkpt lat="49.14195" lon="3.91516">
        <ele>186</ele>
        <time>2019-06-27T20:06:07Z</time>
      </trkpt>
      <trkpt lat="49.14176" lon="3.91521">
        <ele>188</ele>
        <time>2019-06-27T20:06:11Z</time>
      </trkpt>
      <trkpt lat="49.13434" lon="3.91862">
        <ele>176</ele>
        <time>2019-06-27T20:08:29Z</time>
      </trkpt>
      <trkpt lat="49.1342" lon="3.91875">
        <ele>176</ele>
        <time>2019-06-27T20:08:32Z</time>
      </trkpt>
      <trkpt lat="49.13406" lon="3.91893">
        <ele>176</ele>
        <time>2019-06-27T20:08:35Z</time>
      </trkpt>
      <trkpt lat="49.13344" lon="3.91997">
        <ele>175</ele>
        <time>2019-06-27T20:08:51Z</time>
      </trkpt>
      <trkpt lat="49.1327" lon="3.92125">
        <ele>175</ele>
        <time>2019-06-27T20:09:11Z</time>
      </trkpt>
      <trkpt lat="49.13257" lon="3.92139">
        <ele>175</ele>
        <time>2019-06-27T20:09:14Z</time>
      </trkpt>
      <trkpt lat="49.13245" lon="3.92144">
        <ele>175</ele>
        <time>2019-06-27T20:09:16Z</time>
      </trkpt>
      <trkpt lat="49.13232" lon="3.92142">
        <ele>176</ele>
        <time>2019-06-27T20:09:18Z</time>
      </trkpt>
      <trkpt lat="49.1321" lon="3.92132">
        <ele>176</ele>
        <time>2019-06-27T20:09:23Z</time>
      </trkpt>
      <trkpt lat="49.13197" lon="3.92121">
        <ele>177</ele>
        <time>2019-06-27T20:09:25Z</time>
      </trkpt>
      <trkpt lat="49.13188" lon="3.92104">
        <ele>177</ele>
        <time>2019-06-27T20:09:28Z</time>
      </trkpt>
      <trkpt lat="49.13178" lon="3.92078">
        <ele>177</ele>
        <time>2019-06-27T20:09:31Z</time>
      </trkpt>
      <trkpt lat="49.13144" lon="3.91958">
        <ele>181</ele>
        <time>2019-06-27T20:09:46Z</time>
      </trkpt>
      <trkpt lat="49.13131" lon="3.91926">
        <ele>183</ele>
        <time>2019-06-27T20:09:51Z</time>
      </trkpt>
      <trkpt lat="49.13119" lon="3.91902">
        <ele>185</ele>
        <time>2019-06-27T20:09:54Z</time>
      </trkpt>
      <trkpt lat="49.13108" lon="3.91888">
        <ele>186</ele>
        <time>2019-06-27T20:09:57Z</time>
      </trkpt>
      <trkpt lat="49.1307" lon="3.91864">
        <ele>189</ele>
        <time>2019-06-27T20:10:04Z</time>
      </trkpt>
      <trkpt lat="49.13041" lon="3.91848">
        <ele>191</ele>
        <time>2019-06-27T20:10:10Z</time>
      </trkpt>
      <trkpt lat="49.12976" lon="3.91826">
        <ele>194</ele>
        <time>2019-06-27T20:10:22Z</time>
      </trkpt>
      <trkpt lat="49.12963" lon="3.91815">
        <ele>194</ele>
        <time>2019-06-27T20:10:24Z</time>
      </trkpt>
      <trkpt lat="49.12911" lon="3.91763">
        <ele>197</ele>
        <time>2019-06-27T20:10:35Z</time>
      </trkpt>
      <trkpt lat="49.12882" lon="3.91737">
        <ele>198</ele>
        <time>2019-06-27T20:10:41Z</time>
      </trkpt>
      <trkpt lat="49.12818" lon="3.91705">
        <ele>202</ele>
        <time>2019-06-27T20:10:53Z</time>
      </trkpt>
      <trkpt lat="49.12759" lon="3.91677">
        <ele>206</ele>
        <time>2019-06-27T20:11:04Z</time>
      </trkpt>
      <trkpt lat="49.12508" lon="3.91568">
        <ele>233</ele>
        <time>2019-06-27T20:11:51Z</time>
      </trkpt>
      <trkpt lat="49.12372" lon="3.91558">
        <ele>252</ele>
        <time>2019-06-27T20:12:15Z</time>
      </trkpt>
      <trkpt lat="49.12333" lon="3.91565">
        <ele>255</ele>
        <time>2019-06-27T20:12:22Z</time>
      </trkpt>
      <trkpt lat="49.12272" lon="3.91571">
        <ele>256</ele>
        <time>2019-06-27T20:12:33Z</time>
      </trkpt>
      <trkpt lat="49.12177" lon="3.91543">
        <ele>255</ele>
        <time>2019-06-27T20:12:50Z</time>
      </trkpt>
      <trkpt lat="49.12094" lon="3.91529">
        <ele>257</ele>
        <time>2019-06-27T20:13:05Z</time>
      </trkpt>
      <trkpt lat="49.12027" lon="3.9153">
        <ele>259</ele>
        <time>2019-06-27T20:13:17Z</time>
      </trkpt>
      <trkpt lat="49.12003" lon="3.91536">
        <ele>259</ele>
        <time>2019-06-27T20:13:21Z</time>
      </trkpt>
      <trkpt lat="49.11973" lon="3.91557">
        <ele>260</ele>
        <time>2019-06-27T20:13:27Z</time>
      </trkpt>
      <trkpt lat="49.11947" lon="3.91583">
        <ele>260</ele>
        <time>2019-06-27T20:13:32Z</time>
      </trkpt>
      <trkpt lat="49.10992" lon="3.92911">
        <ele>272</ele>
        <time>2019-06-27T20:17:22Z</time>
      </trkpt>
      <trkpt lat="49.10959" lon="3.9296">
        <ele>275</ele>
        <time>2019-06-27T20:17:30Z</time>
      </trkpt>
      <trkpt lat="49.10899" lon="3.93038">
        <ele>277</ele>
        <time>2019-06-27T20:17:44Z</time>
      </trkpt>
      <trkpt lat="49.10835" lon="3.93136">
        <ele>278</ele>
        <time>2019-06-27T20:18:01Z</time>
      </trkpt>
      <trkpt lat="49.10783" lon="3.93196">
        <ele>277</ele>
        <time>2019-06-27T20:18:12Z</time>
      </trkpt>
      <trkpt lat="49.10767" lon="3.9321">
        <ele>276</ele>
        <time>2019-06-27T20:18:15Z</time>
      </trkpt>
      <trkpt lat="49.10295" lon="3.93482">
        <ele>269</ele>
        <time>2019-06-27T20:19:45Z</time>
      </trkpt>
      <trkpt lat="49.09727" lon="3.93802">
        <ele>270</ele>
        <time>2019-06-27T20:21:33Z</time>
      </trkpt>
      <trkpt lat="49.09428" lon="3.93977">
        <ele>273</ele>
        <time>2019-06-27T20:22:30Z</time>
      </trkpt>
      <trkpt lat="49.09273" lon="3.94059">
        <ele>277</ele>
        <time>2019-06-27T20:22:59Z</time>
      </trkpt>
      <trkpt lat="49.0922" lon="3.94083">
        <ele>275</ele>
        <time>2019-06-27T20:23:09Z</time>
      </trkpt>
      <trkpt lat="49.08925" lon="3.94157">
        <ele>264</ele>
        <time>2019-06-27T20:24:02Z</time>
      </trkpt>
      <trkpt lat="49.08764" lon="3.94191">
        <ele>253</ele>
        <time>2019-06-27T20:24:31Z</time>
      </trkpt>
      <trkpt lat="49.08711" lon="3.94188">
        <ele>248</ele>
        <time>2019-06-27T20:24:40Z</time>
      </trkpt>
      <trkpt lat="49.08659" lon="3.94175">
        <ele>246</ele>
        <time>2019-06-27T20:24:50Z</time>
      </trkpt>
      <trkpt lat="49.08625" lon="3.94172">
        <ele>242</ele>
        <time>2019-06-27T20:24:56Z</time>
      </trkpt>
      <trkpt lat="49.08545" lon="3.94184">
        <ele>230</ele>
        <time>2019-06-27T20:25:10Z</time>
      </trkpt>
      <trkpt lat="49.08454" lon="3.94193">
        <ele>218</ele>
        <time>2019-06-27T20:25:26Z</time>
      </trkpt>
      <trkpt lat="49.08434" lon="3.94191">
        <ele>216</ele>
        <time>2019-06-27T20:25:30Z</time>
      </trkpt>
      <trkpt lat="49.08402" lon="3.94178">
        <ele>212</ele>
        <time>2019-06-27T20:25:36Z</time>
      </trkpt>
      <trkpt lat="49.08324" lon="3.94114">
        <ele>205</ele>
        <time>2019-06-27T20:25:52Z</time>
      </trkpt>
      <trkpt lat="49.08318" lon="3.94134">
        <ele>203</ele>
        <time>2019-06-27T20:25:54Z</time>
      </trkpt>
      <trkpt lat="49.08303" lon="3.94234">
        <ele>195</ele>
        <time>2019-06-27T20:26:06Z</time>
      </trkpt>
      <trkpt lat="49.08272" lon="3.94245">
        <ele>191</ele>
        <time>2019-06-27T20:26:12Z</time>
      </trkpt>
      <trkpt lat="49.08244" lon="3.94261">
        <ele>187</ele>
        <time>2019-06-27T20:26:17Z</time>
      </trkpt>
      <trkpt lat="49.08256" lon="3.94304">
        <ele>185</ele>
        <time>2019-06-27T20:26:23Z</time>
      </trkpt>
      <trkpt lat="49.08321" lon="3.94504">
        <ele>186</ele>
        <time>2019-06-27T20:26:49Z</time>
      </trkpt>
      <trkpt lat="49.08317" lon="3.9453">
        <ele>184</ele>
        <time>2019-06-27T20:26:52Z</time>
      </trkpt>
      <trkpt lat="49.08243" lon="3.94598">
        <ele>175</ele>
        <time>2019-06-27T20:27:07Z</time>
      </trkpt>
      <trkpt lat="49.08273" lon="3.94648">
        <ele>175</ele>
        <time>2019-06-27T20:27:15Z</time>
      </trkpt>
      <trkpt lat="49.08285" lon="3.94651">
        <ele>175</ele>
        <time>2019-06-27T20:27:17Z</time>
      </trkpt>
      <trkpt lat="49.08283" lon="3.94666">
        <ele>174</ele>
        <time>2019-06-27T20:27:19Z</time>
      </trkpt>
      <trkpt lat="49.08281" lon="3.94907">
        <ele>153</ele>
        <time>2019-06-27T20:27:47Z</time>
      </trkpt>
      <trkpt lat="49.08243" lon="3.95293">
        <ele>134</ele>
        <time>2019-06-27T20:28:32Z</time>
      </trkpt>
      <trkpt lat="49.08134" lon="3.95766">
        <ele>117</ele>
        <time>2019-06-27T20:29:31Z</time>
      </trkpt>
      <trkpt lat="49.07986" lon="3.96423">
        <ele>109</ele>
        <time>2019-06-27T20:30:52Z</time>
      </trkpt>
      <trkpt lat="49.07984" lon="3.96452">
        <ele>111</ele>
        <time>2019-06-27T20:30:55Z</time>
      </trkpt>
      <trkpt lat="49.07986" lon="3.96557">
        <ele>112</ele>
        <time>2019-06-27T20:31:08Z</time>
      </trkpt>
      <trkpt lat="49.07978" lon="3.96609">
        <ele>111</ele>
        <time>2019-06-27T20:31:14Z</time>
      </trkpt>
      <trkpt lat="49.07978" lon="3.96627">
        <ele>111</ele>
        <time>2019-06-27T20:31:16Z</time>
      </trkpt>
      <trkpt lat="49.07981" lon="3.96639">
        <ele>111</ele>
        <time>2019-06-27T20:31:17Z</time>
      </trkpt>
      <trkpt lat="49.08018" lon="3.96763">
        <ele>113</ele>
        <time>2019-06-27T20:31:33Z</time>
      </trkpt>
      <trkpt lat="49.08021" lon="3.96813">
        <ele>115</ele>
        <time>2019-06-27T20:31:39Z</time>
      </trkpt>
      <trkpt lat="49.08026" lon="3.96855">
        <ele>118</ele>
        <time>2019-06-27T20:31:44Z</time>
      </trkpt>
      <trkpt lat="49.08036" lon="3.96911">
        <ele>122</ele>
        <time>2019-06-27T20:31:51Z</time>
      </trkpt>
      <trkpt lat="49.08042" lon="3.96924">
        <ele>123</ele>
        <time>2019-06-27T20:31:53Z</time>
      </trkpt>
      <trkpt lat="49.08051" lon="3.96934">
        <ele>124</ele>
        <time>2019-06-27T20:31:55Z</time>
      </trkpt>
      <trkpt lat="49.08066" lon="3.96941">
        <ele>124</ele>
        <time>2019-06-27T20:31:57Z</time>
      </trkpt>
      <trkpt lat="49.08139" lon="3.96958">
        <ele>125</ele>
        <time>2019-06-27T20:32:11Z</time>
      </trkpt>
      <trkpt lat="49.08234" lon="3.96994">
        <ele>130</ele>
        <time>2019-06-27T20:32:28Z</time>
      </trkpt>
      <trkpt lat="49.08258" lon="3.97005">
        <ele>132</ele>
        <time>2019-06-27T20:32:32Z</time>
      </trkpt>
      <trkpt lat="49.08283" lon="3.97026">
        <ele>134</ele>
        <time>2019-06-27T20:32:38Z</time>
      </trkpt>
      <trkpt lat="49.08299" lon="3.97045">
        <ele>136</ele>
        <time>2019-06-27T20:32:41Z</time>
      </trkpt>
      <trkpt lat="49.08307" lon="3.97059">
        <ele>136</ele>
        <time>2019-06-27T20:32:43Z</time>
      </trkpt>
      <trkpt lat="49.08318" lon="3.9709">
        <ele>137</ele>
        <time>2019-06-27T20:32:47Z</time>
      </trkpt>
      <trkpt lat="49.08326" lon="3.97106">
        <ele>138</ele>
        <time>2019-06-27T20:32:50Z</time>
      </trkpt>
      <trkpt lat="49.08382" lon="3.97166">
        <ele>142</ele>
        <time>2019-06-27T20:33:02Z</time>
      </trkpt>
      <trkpt lat="49.0841" lon="3.97215">
        <ele>146</ele>
        <time>2019-06-27T20:33:09Z</time>
      </trkpt>
      <trkpt lat="49.08438" lon="3.9738">
        <ele>161</ele>
        <time>2019-06-27T20:33:29Z</time>
      </trkpt>
      <trkpt lat="49.08445" lon="3.97406">
        <ele>163</ele>
        <time>2019-06-27T20:33:33Z</time>
      </trkpt>
      <trkpt lat="49.08456" lon="3.97431">
        <ele>164</ele>
        <time>2019-06-27T20:33:36Z</time>
      </trkpt>
      <trkpt lat="49.08469" lon="3.97455">
        <ele>165</ele>
        <time>2019-06-27T20:33:40Z</time>
      </trkpt>
      <trkpt lat="49.08502" lon="3.97501">
        <ele>168</ele>
        <time>2019-06-27T20:33:48Z</time>
      </trkpt>
      <trkpt lat="49.08521" lon="3.97522">
        <ele>171</ele>
        <time>2019-06-27T20:33:52Z</time>
      </trkpt>
      <trkpt lat="49.08569" lon="3.97564">
        <ele>176</ele>
        <time>2019-06-27T20:34:02Z</time>
      </trkpt>
      <trkpt lat="49.08585" lon="3.97537">
        <ele>176</ele>
        <time>2019-06-27T20:34:06Z</time>
      </trkpt>
      <trkpt lat="49.08604" lon="3.97519">
        <ele>177</ele>
        <time>2019-06-27T20:34:10Z</time>
      </trkpt>
      <trkpt lat="49.08615" lon="3.97512">
        <ele>178</ele>
        <time>2019-06-27T20:34:12Z</time>
      </trkpt>
      <trkpt lat="49.08624" lon="3.9752">
        <ele>179</ele>
        <time>2019-06-27T20:34:14Z</time>
      </trkpt>
      <trkpt lat="49.08628" lon="3.97531">
        <ele>179</ele>
        <time>2019-06-27T20:34:15Z</time>
      </trkpt>
      <trkpt lat="49.08639" lon="3.97562">
        <ele>181</ele>
        <time>2019-06-27T20:34:20Z</time>
      </trkpt>
      <trkpt lat="49.08641" lon="3.97566">
        <ele>182</ele>
        <time>2019-06-27T20:34:20Z</time>
      </trkpt>
      <trkpt lat="49.08644" lon="3.97567">
        <ele>182</ele>
        <time>2019-06-27T20:34:21Z</time>
      </trkpt>
      <trkpt lat="49.08675" lon="3.97545">
        <ele>184</ele>
        <time>2019-06-27T20:34:27Z</time>
      </trkpt>
      <trkpt lat="49.08686" lon="3.97529">
        <ele>185</ele>
        <time>2019-06-27T20:34:29Z</time>
      </trkpt>
      <trkpt lat="49.08701" lon="3.97487">
        <ele>186</ele>
        <time>2019-06-27T20:34:35Z</time>
      </trkpt>
      <trkpt lat="49.08714" lon="3.97433">
        <ele>187</ele>
        <time>2019-06-27T20:34:42Z</time>
      </trkpt>
      <trkpt lat="49.08723" lon="3.97411">
        <ele>188</ele>
        <time>2019-06-27T20:34:45Z</time>
      </trkpt>
      <trkpt lat="49.08799" lon="3.97298">
        <ele>194</ele>
        <time>2019-06-27T20:35:04Z</time>
      </trkpt>
      <trkpt lat="49.08828" lon="3.97239">
        <ele>197</ele>
        <time>2019-06-27T20:35:12Z</time>
      </trkpt>
      <trkpt lat="49.08846" lon="3.97212">
        <ele>200</ele>
        <time>2019-06-27T20:35:17Z</time>
      </trkpt>
      <trkpt lat="49.08855" lon="3.97194">
        <ele>202</ele>
        <time>2019-06-27T20:35:19Z</time>
      </trkpt>
      <trkpt lat="49.08859" lon="3.97116">
        <ele>205</ele>
        <time>2019-06-27T20:35:28Z</time>
      </trkpt>
      <trkpt lat="49.08865" lon="3.97084">
        <ele>208</ele>
        <time>2019-06-27T20:35:32Z</time>
      </trkpt>
      <trkpt lat="49.08875" lon="3.9705">
        <ele>212</ele>
        <time>2019-06-27T20:35:37Z</time>
      </trkpt>
      <trkpt lat="49.08882" lon="3.9703">
        <ele>215</ele>
        <time>2019-06-27T20:35:39Z</time>
      </trkpt>
      <trkpt lat="49.08887" lon="3.97024">
        <ele>216</ele>
        <time>2019-06-27T20:35:40Z</time>
      </trkpt>
      <trkpt lat="49.08895" lon="3.97024">
        <ele>217</ele>
        <time>2019-06-27T20:35:42Z</time>
      </trkpt>
      <trkpt lat="49.08903" lon="3.97031">
        <ele>218</ele>
        <time>2019-06-27T20:35:44Z</time>
      </trkpt>
      <trkpt lat="49.08956" lon="3.97092">
        <ele>223</ele>
        <time>2019-06-27T20:35:55Z</time>
      </trkpt>
      <trkpt lat="49.0902" lon="3.9717">
        <ele>229</ele>
        <time>2019-06-27T20:36:10Z</time>
      </trkpt>
      <trkpt lat="49.09038" lon="3.97201">
        <ele>232</ele>
        <time>2019-06-27T20:36:15Z</time>
      </trkpt>
      <trkpt lat="49.09058" lon="3.97241">
        <ele>235</ele>
        <time>2019-06-27T20:36:21Z</time>
      </trkpt>
      <trkpt lat="49.09074" lon="3.97281">
        <ele>238</ele>
        <time>2019-06-27T20:36:26Z</time>
      </trkpt>
      <trkpt lat="49.09084" lon="3.97328">
        <ele>241</ele>
        <time>2019-06-27T20:36:32Z</time>
      </trkpt>
      <trkpt lat="49.09091" lon="3.97398">
        <ele>244</ele>
        <time>2019-06-27T20:36:40Z</time>
      </trkpt>
      <trkpt lat="49.09091" lon="3.97478">
        <ele>247</ele>
        <time>2019-06-27T20:36:49Z</time>
      </trkpt>
      <trkpt lat="49.09089" lon="3.97564">
        <ele>249</ele>
        <time>2019-06-27T20:36:59Z</time>
      </trkpt>
      <trkpt lat="49.09091" lon="3.97584">
        <ele>249</ele>
        <time>2019-06-27T20:37:02Z</time>
      </trkpt>
      <trkpt lat="49.09095" lon="3.97604">
        <ele>250</ele>
        <time>2019-06-27T20:37:04Z</time>
      </trkpt>
      <trkpt lat="49.09098" lon="3.97616">
        <ele>251</ele>
        <time>2019-06-27T20:37:06Z</time>
      </trkpt>
      <trkpt lat="49.09104" lon="3.9763">
        <ele>252</ele>
        <time>2019-06-27T20:37:08Z</time>
      </trkpt>
      <trkpt lat="49.09118" lon="3.97648">
        <ele>254</ele>
        <time>2019-06-27T20:37:11Z</time>
      </trkpt>
      <trkpt lat="49.09135" lon="3.97661">
        <ele>257</ele>
        <time>2019-06-27T20:37:14Z</time>
      </trkpt>
      <trkpt lat="49.09158" lon="3.97666">
        <ele>261</ele>
        <time>2019-06-27T20:37:18Z</time>
      </trkpt>
      <trkpt lat="49.09163" lon="3.9767">
        <ele>262</ele>
        <time>2019-06-27T20:37:19Z</time>
      </trkpt>
      <trkpt lat="49.09165" lon="3.97676">
        <ele>262</ele>
        <time>2019-06-27T20:37:20Z</time>
      </trkpt>
      <trkpt lat="49.0916" lon="3.97676">
        <ele>261</ele>
        <time>2019-06-27T20:37:21Z</time>
      </trkpt>
      <trkpt lat="49.09144" lon="3.97687">
        <ele>259</ele>
        <time>2019-06-27T20:37:24Z</time>
      </trkpt>
      <trkpt lat="49.09087" lon="3.97743">
        <ele>254</ele>
        <time>2019-06-27T20:37:36Z</time>
      </trkpt>
      <trkpt lat="49.09066" lon="3.97766">
        <ele>251</ele>
        <time>2019-06-27T20:37:41Z</time>
      </trkpt>
      <trkpt lat="49.09054" lon="3.97784">
        <ele>249</ele>
        <time>2019-06-27T20:37:44Z</time>
      </trkpt>
      <trkpt lat="49.09044" lon="3.97806">
        <ele>247</ele>
        <time>2019-06-27T20:37:47Z</time>
      </trkpt>
      <trkpt lat="49.09037" lon="3.97833">
        <ele>247</ele>
        <time>2019-06-27T20:37:50Z</time>
      </trkpt>
      <trkpt lat="49.0903" lon="3.9787">
        <ele>248</ele>
        <time>2019-06-27T20:37:55Z</time>
      </trkpt>
      <trkpt lat="49.09022" lon="3.97909">
        <ele>249</ele>
        <time>2019-06-27T20:38:00Z</time>
      </trkpt>
      <trkpt lat="49.09014" lon="3.97928">
        <ele>250</ele>
        <time>2019-06-27T20:38:02Z</time>
      </trkpt>
      <trkpt lat="49.08999" lon="3.9796">
        <ele>250</ele>
        <time>2019-06-27T20:38:07Z</time>
      </trkpt>
      <trkpt lat="49.08975" lon="3.98002">
        <ele>248</ele>
        <time>2019-06-27T20:38:13Z</time>
      </trkpt>
      <trkpt lat="49.08957" lon="3.98032">
        <ele>248</ele>
        <time>2019-06-27T20:38:18Z</time>
      </trkpt>
      <trkpt lat="49.08943" lon="3.98047">
        <ele>248</ele>
        <time>2019-06-27T20:38:21Z</time>
      </trkpt>
      <trkpt lat="49.08929" lon="3.98057">
        <ele>247</ele>
        <time>2019-06-27T20:38:24Z</time>
      </trkpt>
      <trkpt lat="49.08914" lon="3.98065">
        <ele>247</ele>
        <time>2019-06-27T20:38:27Z</time>
      </trkpt>
      <trkpt lat="49.08893" lon="3.98069">
        <ele>246</ele>
        <time>2019-06-27T20:38:30Z</time>
      </trkpt>
      <trkpt lat="49.08829" lon="3.98073">
        <ele>242</ele>
        <time>2019-06-27T20:38:42Z</time>
      </trkpt>
      <trkpt lat="49.08758" lon="3.98083">
        <ele>235</ele>
        <time>2019-06-27T20:38:55Z</time>
      </trkpt>
      <trkpt lat="49.08729" lon="3.9809">
        <ele>232</ele>
        <time>2019-06-27T20:39:00Z</time>
      </trkpt>
      <trkpt lat="49.08708" lon="3.98098">
        <ele>231</ele>
        <time>2019-06-27T20:39:04Z</time>
      </trkpt>
      <trkpt lat="49.0867" lon="3.98126">
        <ele>231</ele>
        <time>2019-06-27T20:39:11Z</time>
      </trkpt>
      <trkpt lat="49.08649" lon="3.98135">
        <ele>231</ele>
        <time>2019-06-27T20:39:15Z</time>
      </trkpt>
      <trkpt lat="49.08635" lon="3.98136">
        <ele>230</ele>
        <time>2019-06-27T20:39:17Z</time>
      </trkpt>
      <trkpt lat="49.08595" lon="3.98129">
        <ele>226</ele>
        <time>2019-06-27T20:39:25Z</time>
      </trkpt>
      <trkpt lat="49.0855" lon="3.98116">
        <ele>222</ele>
        <time>2019-06-27T20:39:33Z</time>
      </trkpt>
      <trkpt lat="49.08502" lon="3.9811">
        <ele>221</ele>
        <time>2019-06-27T20:39:41Z</time>
      </trkpt>
      <trkpt lat="49.08469" lon="3.98102">
        <ele>219</ele>
        <time>2019-06-27T20:39:47Z</time>
      </trkpt>
      <trkpt lat="49.08447" lon="3.98093">
        <ele>217</ele>
        <time>2019-06-27T20:39:51Z</time>
      </trkpt>
      <trkpt lat="49.08429" lon="3.98082">
        <ele>215</ele>
        <time>2019-06-27T20:39:55Z</time>
      </trkpt>
      <trkpt lat="49.08414" lon="3.98066">
        <ele>214</ele>
        <time>2019-06-27T20:39:58Z</time>
      </trkpt>
      <trkpt lat="49.08405" lon="3.98054">
        <ele>214</ele>
        <time>2019-06-27T20:40:00Z</time>
      </trkpt>
      <trkpt lat="49.08395" lon="3.98029">
        <ele>212</ele>
        <time>2019-06-27T20:40:04Z</time>
      </trkpt>
      <trkpt lat="49.0838" lon="3.97999">
        <ele>211</ele>
        <time>2019-06-27T20:40:08Z</time>
      </trkpt>
      <trkpt lat="49.08366" lon="3.9798">
        <ele>211</ele>
        <time>2019-06-27T20:40:11Z</time>
      </trkpt>
      <trkpt lat="49.08338" lon="3.97922">
        <ele>209</ele>
        <time>2019-06-27T20:40:20Z</time>
      </trkpt>
      <trkpt lat="49.08323" lon="3.97882">
        <ele>206</ele>
        <time>2019-06-27T20:40:25Z</time>
      </trkpt>
      <trkpt lat="49.08297" lon="3.97832">
        <ele>203</ele>
        <time>2019-06-27T20:40:33Z</time>
      </trkpt>
      <trkpt lat="49.08279" lon="3.97801">
        <ele>201</ele>
        <time>2019-06-27T20:40:37Z</time>
      </trkpt>
      <trkpt lat="49.08252" lon="3.97745">
        <ele>199</ele>
        <time>2019-06-27T20:40:45Z</time>
      </trkpt>
      <trkpt lat="49.0824" lon="3.977">
        <ele>196</ele>
        <time>2019-06-27T20:40:51Z</time>
      </trkpt>
      <trkpt lat="49.08242" lon="3.97699">
        <ele>196</ele>
        <time>2019-06-27T20:40:52Z</time>
      </trkpt>
      <trkpt lat="49.08245" lon="3.97691">
        <ele>196</ele>
        <time>2019-06-27T20:40:53Z</time>
      </trkpt>
      <trkpt lat="49.08242" lon="3.97682">
        <ele>195</ele>
        <time>2019-06-27T20:40:54Z</time>
      </trkpt>
      <trkpt lat="49.0824" lon="3.97681">
        <ele>195</ele>
        <time>2019-06-27T20:40:54Z</time>
      </trkpt>
      <trkpt lat="49.08242" lon="3.97645">
        <ele>194</ele>
        <time>2019-06-27T20:40:58Z</time>
      </trkpt>
      <trkpt lat="49.08248" lon="3.97604">
        <ele>193</ele>
        <time>2019-06-27T20:41:03Z</time>
      </trkpt>
      <trkpt lat="49.08249" lon="3.9758">
        <ele>192</ele>
        <time>2019-06-27T20:41:06Z</time>
      </trkpt>
      <trkpt lat="49.08248" lon="3.97565">
        <ele>191</ele>
        <time>2019-06-27T20:41:08Z</time>
      </trkpt>
      <trkpt lat="49.08244" lon="3.97542">
        <ele>190</ele>
        <time>2019-06-27T20:41:11Z</time>
      </trkpt>
      <trkpt lat="49.0824" lon="3.97529">
        <ele>189</ele>
        <time>2019-06-27T20:41:12Z</time>
      </trkpt>
      <trkpt lat="49.08227" lon="3.97505">
        <ele>187</ele>
        <time>2019-06-27T20:41:16Z</time>
      </trkpt>
      <trkpt lat="49.0821" lon="3.97485">
        <ele>185</ele>
        <time>2019-06-27T20:41:20Z</time>
      </trkpt>
      <trkpt lat="49.08195" lon="3.97478">
        <ele>184</ele>
        <time>2019-06-27T20:41:23Z</time>
      </trkpt>
      <trkpt lat="49.08173" lon="3.97472">
        <ele>183</ele>
        <time>2019-06-27T20:41:26Z</time>
      </trkpt>
      <trkpt lat="49.08127" lon="3.97463">
        <ele>180</ele>
        <time>2019-06-27T20:41:35Z</time>
      </trkpt>
      <trkpt lat="49.08112" lon="3.97466">
        <ele>179</ele>
        <time>2019-06-27T20:41:37Z</time>
      </trkpt>
      <trkpt lat="49.08088" lon="3.9748">
        <ele>179</ele>
        <time>2019-06-27T20:41:42Z</time>
      </trkpt>
      <trkpt lat="49.08004" lon="3.9757">
        <ele>176</ele>
        <time>2019-06-27T20:42:00Z</time>
      </trkpt>
      <trkpt lat="49.07979" lon="3.97599">
        <ele>175</ele>
        <time>2019-06-27T20:42:06Z</time>
      </trkpt>
      <trkpt lat="49.07961" lon="3.97627">
        <ele>173</ele>
        <time>2019-06-27T20:42:10Z</time>
      </trkpt>
      <trkpt lat="49.07944" lon="3.97664">
        <ele>172</ele>
        <time>2019-06-27T20:42:16Z</time>
      </trkpt>
      <trkpt lat="49.07919" lon="3.97737">
        <ele>169</ele>
        <time>2019-06-27T20:42:25Z</time>
      </trkpt>
      <trkpt lat="49.07903" lon="3.9777">
        <ele>169</ele>
        <time>2019-06-27T20:42:30Z</time>
      </trkpt>
      <trkpt lat="49.07887" lon="3.97787">
        <ele>168</ele>
        <time>2019-06-27T20:42:34Z</time>
      </trkpt>
      <trkpt lat="49.07873" lon="3.97797">
        <ele>167</ele>
        <time>2019-06-27T20:42:36Z</time>
      </trkpt>
      <trkpt lat="49.07855" lon="3.97805">
        <ele>166</ele>
        <time>2019-06-27T20:42:40Z</time>
      </trkpt>
      <trkpt lat="49.07831" lon="3.97808">
        <ele>164</ele>
        <time>2019-06-27T20:42:44Z</time>
      </trkpt>
      <trkpt lat="49.07727" lon="3.97804">
        <ele>161</ele>
        <time>2019-06-27T20:43:02Z</time>
      </trkpt>
      <trkpt lat="49.07696" lon="3.97798">
        <ele>161</ele>
        <time>2019-06-27T20:43:08Z</time>
      </trkpt>
      <trkpt lat="49.07666" lon="3.9778">
        <ele>158</ele>
        <time>2019-06-27T20:43:14Z</time>
      </trkpt>
      <trkpt lat="49.07618" lon="3.97736">
        <ele>152</ele>
        <time>2019-06-27T20:43:24Z</time>
      </trkpt>
      <trkpt lat="49.076" lon="3.97727">
        <ele>150</ele>
        <time>2019-06-27T20:43:27Z</time>
      </trkpt>
      <trkpt lat="49.07538" lon="3.97711">
        <ele>149</ele>
        <time>2019-06-27T20:43:38Z</time>
      </trkpt>
      <trkpt lat="49.07522" lon="3.977">
        <ele>148</ele>
        <time>2019-06-27T20:43:41Z</time>
      </trkpt>
      <trkpt lat="49.07506" lon="3.97683">
        <ele>147</ele>
        <time>2019-06-27T20:43:45Z</time>
      </trkpt>
      <trkpt lat="49.07436" lon="3.97586">
        <ele>141</ele>
        <time>2019-06-27T20:44:02Z</time>
      </trkpt>
      <trkpt lat="49.07413" lon="3.97547">
        <ele>139</ele>
        <time>2019-06-27T20:44:08Z</time>
      </trkpt>
      <trkpt lat="49.07402" lon="3.97521">
        <ele>138</ele>
        <time>2019-06-27T20:44:11Z</time>
      </trkpt>
      <trkpt lat="49.07371" lon="3.97422">
        <ele>130</ele>
        <time>2019-06-27T20:44:24Z</time>
      </trkpt>
      <trkpt lat="49.07359" lon="3.9739">
        <ele>129</ele>
        <time>2019-06-27T20:44:28Z</time>
      </trkpt>
      <trkpt lat="49.07344" lon="3.97362">
        <ele>128</ele>
        <time>2019-06-27T20:44:33Z</time>
      </trkpt>
      <trkpt lat="49.07322" lon="3.97333">
        <ele>127</ele>
        <time>2019-06-27T20:44:38Z</time>
      </trkpt>
      <trkpt lat="49.07298" lon="3.97312">
        <ele>126</ele>
        <time>2019-06-27T20:44:43Z</time>
      </trkpt>
      <trkpt lat="49.07236" lon="3.97289">
        <ele>123</ele>
        <time>2019-06-27T20:44:54Z</time>
      </trkpt>
      <trkpt lat="49.07215" lon="3.97287">
        <ele>121</ele>
        <time>2019-06-27T20:44:58Z</time>
      </trkpt>
      <trkpt lat="49.07196" lon="3.97293">
        <ele>120</ele>
        <time>2019-06-27T20:45:01Z</time>
      </trkpt>
      <trkpt lat="49.07179" lon="3.97304">
        <ele>120</ele>
        <time>2019-06-27T20:45:05Z</time>
      </trkpt>
      <trkpt lat="49.07163" lon="3.97326">
        <ele>120</ele>
        <time>2019-06-27T20:45:08Z</time>
      </trkpt>
      <trkpt lat="49.07148" lon="3.97357">
        <ele>118</ele>
        <time>2019-06-27T20:45:13Z</time>
      </trkpt>
      <trkpt lat="49.07138" lon="3.97391">
        <ele>117</ele>
        <time>2019-06-27T20:45:17Z</time>
      </trkpt>
      <trkpt lat="49.07122" lon="3.97464">
        <ele>116</ele>
        <time>2019-06-27T20:45:26Z</time>
      </trkpt>
      <trkpt lat="49.07111" lon="3.97487">
        <ele>115</ele>
        <time>2019-06-27T20:45:30Z</time>
      </trkpt>
      <trkpt lat="49.071" lon="3.97502">
        <ele>114</ele>
        <time>2019-06-27T20:45:32Z</time>
      </trkpt>
      <trkpt lat="49.07077" lon="3.97523">
        <ele>112</ele>
        <time>2019-06-27T20:45:37Z</time>
      </trkpt>
      <trkpt lat="49.07061" lon="3.97529">
        <ele>112</ele>
        <time>2019-06-27T20:45:40Z</time>
      </trkpt>
      <trkpt lat="49.07038" lon="3.9753">
        <ele>111</ele>
        <time>2019-06-27T20:45:44Z</time>
      </trkpt>
      <trkpt lat="49.07021" lon="3.97525">
        <ele>110</ele>
        <time>2019-06-27T20:45:47Z</time>
      </trkpt>
      <trkpt lat="49.07004" lon="3.97515">
        <ele>108</ele>
        <time>2019-06-27T20:45:50Z</time>
      </trkpt>
      <trkpt lat="49.0699" lon="3.97499">
        <ele>108</ele>
        <time>2019-06-27T20:45:53Z</time>
      </trkpt>
      <trkpt lat="49.06969" lon="3.97457">
        <ele>108</ele>
        <time>2019-06-27T20:46:00Z</time>
      </trkpt>
      <trkpt lat="49.06962" lon="3.97424">
        <ele>107</ele>
        <time>2019-06-27T20:46:04Z</time>
      </trkpt>
      <trkpt lat="49.06962" lon="3.97353">
        <ele>104</ele>
        <time>2019-06-27T20:46:12Z</time>
      </trkpt>
      <trkpt lat="49.06957" lon="3.97316">
        <ele>102</ele>
        <time>2019-06-27T20:46:16Z</time>
      </trkpt>
      <trkpt lat="49.06942" lon="3.97282">
        <ele>101</ele>
        <time>2019-06-27T20:46:21Z</time>
      </trkpt>
      <trkpt lat="49.06925" lon="3.97261">
        <ele>100</ele>
        <time>2019-06-27T20:46:25Z</time>
      </trkpt>
      <trkpt lat="49.06708" lon="3.97077">
        <ele>88</ele>
        <time>2019-06-27T20:47:09Z</time>
      </trkpt>
      <trkpt lat="49.06686" lon="3.97059">
        <ele>87</ele>
        <time>2019-06-27T20:47:14Z</time>
      </trkpt>
      <trkpt lat="49.06648" lon="3.97038">
        <ele>86</ele>
        <time>2019-06-27T20:47:21Z</time>
      </trkpt>
      <trkpt lat="49.06514" lon="3.96987">
        <ele>82</ele>
        <time>2019-06-27T20:47:45Z</time>
      </trkpt>
      <trkpt lat="49.06418" lon="3.96913">
        <ele>77</ele>
        <time>2019-06-27T20:48:04Z</time>
      </trkpt>
      <trkpt lat="49.06411" lon="3.96922">
        <ele>77</ele>
        <time>2019-06-27T20:48:06Z</time>
      </trkpt>
      <trkpt lat="49.06399" lon="3.96955">
        <ele>78</ele>
        <time>2019-06-27T20:48:11Z</time>
      </trkpt>
      <trkpt lat="49.06388" lon="3.96993">
        <ele>79</ele>
        <time>2019-06-27T20:48:15Z</time>
      </trkpt>
      <trkpt lat="49.06378" lon="3.97038">
        <ele>80</ele>
        <time>2019-06-27T20:48:21Z</time>
      </trkpt>
      <trkpt lat="49.06347" lon="3.97201">
        <ele>83</ele>
        <time>2019-06-27T20:48:41Z</time>
      </trkpt>
      <trkpt lat="49.0632" lon="3.97401">
        <ele>85</ele>
        <time>2019-06-27T20:49:04Z</time>
      </trkpt>
      <trkpt lat="49.06309" lon="3.97464">
        <ele>86</ele>
        <time>2019-06-27T20:49:12Z</time>
      </trkpt>
      <trkpt lat="49.06283" lon="3.97587">
        <ele>85</ele>
        <time>2019-06-27T20:49:27Z</time>
      </trkpt>
      <trkpt lat="49.06262" lon="3.9767">
        <ele>84</ele>
        <time>2019-06-27T20:49:38Z</time>
      </trkpt>
      <trkpt lat="49.06252" lon="3.97694">
        <ele>83</ele>
        <time>2019-06-27T20:49:41Z</time>
      </trkpt>
      <trkpt lat="49.06231" lon="3.97739">
        <ele>82</ele>
        <time>2019-06-27T20:49:47Z</time>
      </trkpt>
      <trkpt lat="49.06214" lon="3.97782">
        <ele>82</ele>
        <time>2019-06-27T20:49:53Z</time>
      </trkpt>
      <trkpt lat="49.05899" lon="3.98741">
        <ele>75</ele>
        <time>2019-06-27T20:51:58Z</time>
      </trkpt>
      <trkpt lat="49.0576" lon="3.99173">
        <ele>72</ele>
        <time>2019-06-27T20:52:54Z</time>
      </trkpt>
      <trkpt lat="49.05596" lon="3.99668">
        <ele>71</ele>
        <time>2019-06-27T20:53:59Z</time>
      </trkpt>
      <trkpt lat="49.05582" lon="3.99707">
        <ele>71</ele>
        <time>2019-06-27T20:54:04Z</time>
      </trkpt>
      <trkpt lat="49.05577" lon="3.99717">
        <ele>71</ele>
        <time>2019-06-27T20:54:06Z</time>
      </trkpt>
      <trkpt lat="49.05568" lon="3.99726">
        <ele>71</ele>
        <time>2019-06-27T20:54:08Z</time>
      </trkpt>
      <trkpt lat="49.05562" lon="3.99728">
        <ele>71</ele>
        <time>2019-06-27T20:54:09Z</time>
      </trkpt>
      <trkpt lat="49.05549" lon="3.99723">
        <ele>71</ele>
        <time>2019-06-27T20:54:11Z</time>
      </trkpt>
      <trkpt lat="49.05545" lon="3.9971">
        <ele>71</ele>
        <time>2019-06-27T20:54:13Z</time>
      </trkpt>
      <trkpt lat="49.05536" lon="3.99697">
        <ele>71</ele>
        <time>2019-06-27T20:54:15Z</time>
      </trkpt>
      <trkpt lat="49.05533" lon="3.99694">
        <ele>71</ele>
        <time>2019-06-27T20:54:16Z</time>
      </trkpt>
      <trkpt lat="49.05526" lon="3.99695">
        <ele>71</ele>
        <time>2019-06-27T20:54:17Z</time>
      </trkpt>
      <trkpt lat="49.05519" lon="3.99699">
        <ele>71</ele>
        <time>2019-06-27T20:54:18Z</time>
      </trkpt>
      <trkpt lat="49.05513" lon="3.99707">
        <ele>71</ele>
        <time>2019-06-27T20:54:20Z</time>
      </trkpt>
      <trkpt lat="49.05509" lon="3.99714">
        <ele>70</ele>
        <time>2019-06-27T20:54:21Z</time>
      </trkpt>
      <trkpt lat="49.05489" lon="3.99819">
        <ele>71</ele>
        <time>2019-06-27T20:54:33Z</time>
      </trkpt>
      <trkpt lat="49.0548" lon="3.99845">
        <ele>71</ele>
        <time>2019-06-27T20:54:37Z</time>
      </trkpt>
      <trkpt lat="49.05463" lon="3.99866">
        <ele>71</ele>
        <time>2019-06-27T20:54:41Z</time>
      </trkpt>
      <trkpt lat="49.05372" lon="3.99993">
        <ele>70</ele>
        <time>2019-06-27T20:55:03Z</time>
      </trkpt>
      <trkpt lat="49.05321" lon="4.00081">
        <ele>70</ele>
        <time>2019-06-27T20:55:16Z</time>
      </trkpt>
      <trkpt lat="49.0531" lon="4.00091">
        <ele>70</ele>
        <time>2019-06-27T20:55:19Z</time>
      </trkpt>
      <trkpt lat="49.05289" lon="4.00131">
        <ele>71</ele>
        <time>2019-06-27T20:55:25Z</time>
      </trkpt>
      <trkpt lat="49.05283" lon="4.00158">
        <ele>72</ele>
        <time>2019-06-27T20:55:28Z</time>
      </trkpt>
      <trkpt lat="49.05217" lon="4.0035">
        <ele>72</ele>
        <time>2019-06-27T20:55:53Z</time>
      </trkpt>
      <trkpt lat="49.05214" lon="4.00358">
        <ele>72</ele>
        <time>2019-06-27T20:55:54Z</time>
      </trkpt>
      <trkpt lat="49.05207" lon="4.00362">
        <ele>72</ele>
        <time>2019-06-27T20:55:56Z</time>
      </trkpt>
      <trkpt lat="49.05205" lon="4.00373">
        <ele>72</ele>
        <time>2019-06-27T20:55:57Z</time>
      </trkpt>
      <trkpt lat="49.052" lon="4.00384">
        <ele>72</ele>
        <time>2019-06-27T20:55:59Z</time>
      </trkpt>
      <trkpt lat="49.05115" lon="4.00588">
        <ele>72</ele>
        <time>2019-06-27T20:56:27Z</time>
      </trkpt>
      <trkpt lat="49.0509" lon="4.00654">
        <ele>73</ele>
        <time>2019-06-27T20:56:36Z</time>
      </trkpt>
      <trkpt lat="49.05086" lon="4.00679">
        <ele>73</ele>
        <time>2019-06-27T20:56:39Z</time>
      </trkpt>
      <trkpt lat="49.0508" lon="4.00688">
        <ele>73</ele>
        <time>2019-06-27T20:56:40Z</time>
      </trkpt>
      <trkpt lat="49.05082" lon="4.00699">
        <ele>73</ele>
        <time>2019-06-27T20:56:41Z</time>
      </trkpt>
      <trkpt lat="49.05084" lon="4.00702">
        <ele>73</ele>
        <time>2019-06-27T20:56:42Z</time>
      </trkpt>
      <trkpt lat="49.05089" lon="4.00703">
        <ele>73</ele>
        <time>2019-06-27T20:56:43Z</time>
      </trkpt>
      <trkpt lat="49.05095" lon="4.00696">
        <ele>73</ele>
        <time>2019-06-27T20:56:44Z</time>
      </trkpt>
      <trkpt lat="49.05102" lon="4.00707">
        <ele>73</ele>
        <time>2019-06-27T20:56:46Z</time>
      </trkpt>
      <trkpt lat="49.05134" lon="4.00862">
        <ele>74</ele>
        <time>2019-06-27T20:57:05Z</time>
      </trkpt>
      <trkpt lat="49.05188" lon="4.00981">
        <ele>75</ele>
        <time>2019-06-27T20:57:22Z</time>
      </trkpt>
      <trkpt lat="49.05198" lon="4.00997">
        <ele>75</ele>
        <time>2019-06-27T20:57:24Z</time>
      </trkpt>
      <trkpt lat="49.05211" lon="4.0101">
        <ele>76</ele>
        <time>2019-06-27T20:57:27Z</time>
      </trkpt>
      <trkpt lat="49.05226" lon="4.01015">
        <ele>76</ele>
        <time>2019-06-27T20:57:30Z</time>
      </trkpt>
      <trkpt lat="49.05215" lon="4.01091">
        <ele>77</ele>
        <time>2019-06-27T20:57:39Z</time>
      </trkpt>
      <trkpt lat="49.05212" lon="4.01102">
        <ele>76</ele>
        <time>2019-06-27T20:57:40Z</time>
      </trkpt>
      <trkpt lat="49.05207" lon="4.01133">
        <ele>76</ele>
        <time>2019-06-27T20:57:44Z</time>
      </trkpt>
      <trkpt lat="49.05217" lon="4.0115">
        <ele>76</ele>
        <time>2019-06-27T20:57:47Z</time>
      </trkpt>
      <trkpt lat="49.05229" lon="4.01156">
        <ele>77</ele>
        <time>2019-06-27T20:57:49Z</time>
      </trkpt>
      <trkpt lat="49.05233" lon="4.01169">
        <ele>77</ele>
        <time>2019-06-27T20:57:51Z</time>
      </trkpt>
      <trkpt lat="49.05428" lon="4.0184">
        <ele>84</ele>
        <time>2019-06-27T20:59:16Z</time>
      </trkpt>
      <trkpt lat="49.05457" lon="4.02007">
        <ele>88</ele>
        <time>2019-06-27T20:59:36Z</time>
      </trkpt>
      <trkpt lat="49.05461" lon="4.02045">
        <ele>88</ele>
        <time>2019-06-27T20:59:41Z</time>
      </trkpt>
      <trkpt lat="49.0546" lon="4.02132">
        <ele>89</ele>
        <time>2019-06-27T20:59:51Z</time>
      </trkpt>
      <trkpt lat="49.05455" lon="4.0235">
        <ele>87</ele>
        <time>2019-06-27T21:00:16Z</time>
      </trkpt>
      <trkpt lat="49.05456" lon="4.02373">
        <ele>87</ele>
        <time>2019-06-27T21:00:19Z</time>
      </trkpt>
      <trkpt lat="49.0546" lon="4.02394">
        <ele>87</ele>
        <time>2019-06-27T21:00:22Z</time>
      </trkpt>
      <trkpt lat="49.05467" lon="4.02428">
        <ele>87</ele>
        <time>2019-06-27T21:00:26Z</time>
      </trkpt>
      <trkpt lat="49.05503" lon="4.02566">
        <ele>88</ele>
        <time>2019-06-27T21:00:43Z</time>
      </trkpt>
      <trkpt lat="49.0562" lon="4.02981">
        <ele>102</ele>
        <time>2019-06-27T21:01:36Z</time>
      </trkpt>
      <trkpt lat="49.05692" lon="4.033">
        <ele>97</ele>
        <time>2019-06-27T21:02:15Z</time>
      </trkpt>
      <trkpt lat="49.05777" lon="4.03638">
        <ele>96</ele>
        <time>2019-06-27T21:02:57Z</time>
      </trkpt>
      <trkpt lat="49.058" lon="4.03717">
        <ele>97</ele>
        <time>2019-06-27T21:03:07Z</time>
      </trkpt>
      <trkpt lat="49.05821" lon="4.03773">
        <ele>98</ele>
        <time>2019-06-27T21:03:15Z</time>
      </trkpt>
      <trkpt lat="49.05834" lon="4.03799">
        <ele>99</ele>
        <time>2019-06-27T21:03:19Z</time>
      </trkpt>
      <trkpt lat="49.059" lon="4.03907">
        <ele>105</ele>
        <time>2019-06-27T21:03:36Z</time>
      </trkpt>
      <trkpt lat="49.05947" lon="4.03991">
        <ele>109</ele>
        <time>2019-06-27T21:03:49Z</time>
      </trkpt>
      <trkpt lat="49.05977" lon="4.04038">
        <ele>111</ele>
        <time>2019-06-27T21:03:57Z</time>
      </trkpt>
      <trkpt lat="49.05995" lon="4.04064">
        <ele>111</ele>
        <time>2019-06-27T21:04:01Z</time>
      </trkpt>
      <trkpt lat="49.06056" lon="4.04136">
        <ele>112</ele>
        <time>2019-06-27T21:04:15Z</time>
      </trkpt>
      <trkpt lat="49.0609" lon="4.0417">
        <ele>111</ele>
        <time>2019-06-27T21:04:22Z</time>
      </trkpt>
      <trkpt lat="49.06137" lon="4.04213">
        <ele>110</ele>
        <time>2019-06-27T21:04:32Z</time>
      </trkpt>
      <trkpt lat="49.06171" lon="4.04241">
        <ele>109</ele>
        <time>2019-06-27T21:04:39Z</time>
      </trkpt>
      <trkpt lat="49.06193" lon="4.04255">
        <ele>107</ele>
        <time>2019-06-27T21:04:43Z</time>
      </trkpt>
      <trkpt lat="49.06241" lon="4.04282">
        <ele>106</ele>
        <time>2019-06-27T21:04:52Z</time>
      </trkpt>
      <trkpt lat="49.06274" lon="4.04297">
        <ele>105</ele>
        <time>2019-06-27T21:04:58Z</time>
      </trkpt>
      <trkpt lat="49.06338" lon="4.04314">
        <ele>104</ele>
        <time>2019-06-27T21:05:10Z</time>
      </trkpt>
      <trkpt lat="49.06409" lon="4.0431">
        <ele>107</ele>
        <time>2019-06-27T21:05:22Z</time>
      </trkpt>
      <trkpt lat="49.06426" lon="4.04319">
        <ele>107</ele>
        <time>2019-06-27T21:05:25Z</time>
      </trkpt>
      <trkpt lat="49.06431" lon="4.04327">
        <ele>107</ele>
        <time>2019-06-27T21:05:27Z</time>
      </trkpt>
      <trkpt lat="49.06434" lon="4.04336">
        <ele>106</ele>
        <time>2019-06-27T21:05:28Z</time>
      </trkpt>
      <trkpt lat="49.06438" lon="4.04389">
        <ele>104</ele>
        <time>2019-06-27T21:05:34Z</time>
      </trkpt>
      <trkpt lat="49.06439" lon="4.04395">
        <ele>104</ele>
        <time>2019-06-27T21:05:35Z</time>
      </trkpt>
      <trkpt lat="49.06448" lon="4.04414">
        <ele>103</ele>
        <time>2019-06-27T21:05:38Z</time>
      </trkpt>
      <trkpt lat="49.06458" lon="4.04426">
        <ele>103</ele>
        <time>2019-06-27T21:05:40Z</time>
      </trkpt>
      <trkpt lat="49.06471" lon="4.04432">
        <ele>102</ele>
        <time>2019-06-27T21:05:42Z</time>
      </trkpt>
      <trkpt lat="49.06603" lon="4.04443">
        <ele>97</ele>
        <time>2019-06-27T21:06:06Z</time>
      </trkpt>
      <trkpt lat="49.06669" lon="4.04453">
        <ele>95</ele>
        <time>2019-06-27T21:06:18Z</time>
      </trkpt>
      <trkpt lat="49.06687" lon="4.04458">
        <ele>95</ele>
        <time>2019-06-27T21:06:21Z</time>
      </trkpt>
      <trkpt lat="49.06704" lon="4.04469">
        <ele>94</ele>
        <time>2019-06-27T21:06:24Z</time>
      </trkpt>
      <trkpt lat="49.06726" lon="4.04494">
        <ele>93</ele>
        <time>2019-06-27T21:06:29Z</time>
      </trkpt>
      <trkpt lat="49.06735" lon="4.04509">
        <ele>92</ele>
        <time>2019-06-27T21:06:31Z</time>
      </trkpt>
      <trkpt lat="49.06742" lon="4.04528">
        <ele>91</ele>
        <time>2019-06-27T21:06:34Z</time>
      </trkpt>
      <trkpt lat="49.0675" lon="4.04566">
        <ele>88</ele>
        <time>2019-06-27T21:06:39Z</time>
      </trkpt>
      <trkpt lat="49.06751" lon="4.04592">
        <ele>87</ele>
        <time>2019-06-27T21:06:42Z</time>
      </trkpt>
      <trkpt lat="49.06743" lon="4.04645">
        <ele>85</ele>
        <time>2019-06-27T21:06:48Z</time>
      </trkpt>
      <trkpt lat="49.06734" lon="4.04686">
        <ele>84</ele>
        <time>2019-06-27T21:06:53Z</time>
      </trkpt>
      <trkpt lat="49.06884" lon="4.04758">
        <ele>86</ele>
        <time>2019-06-27T21:07:21Z</time>
      </trkpt>
      <trkpt lat="49.06945" lon="4.04783">
        <ele>86</ele>
        <time>2019-06-27T21:07:32Z</time>
      </trkpt>
      <trkpt lat="49.06962" lon="4.04793">
        <ele>86</ele>
        <time>2019-06-27T21:07:35Z</time>
      </trkpt>
      <trkpt lat="49.07002" lon="4.04829">
        <ele>86</ele>
        <time>2019-06-27T21:07:44Z</time>
      </trkpt>
      <trkpt lat="49.07051" lon="4.04901">
        <ele>86</ele>
        <time>2019-06-27T21:07:56Z</time>
      </trkpt>
      <trkpt lat="49.07059" lon="4.04924">
        <ele>86</ele>
        <time>2019-06-27T21:07:59Z</time>
      </trkpt>
      <trkpt lat="49.07059" lon="4.04948">
        <ele>86</ele>
        <time>2019-06-27T21:08:02Z</time>
      </trkpt>
      <trkpt lat="49.07048" lon="4.05079">
        <ele>85</ele>
        <time>2019-06-27T21:08:17Z</time>
      </trkpt>
      <trkpt lat="49.0705" lon="4.05098">
        <ele>85</ele>
        <time>2019-06-27T21:08:19Z</time>
      </trkpt>
      <trkpt lat="49.07054" lon="4.0511">
        <ele>85</ele>
        <time>2019-06-27T21:08:21Z</time>
      </trkpt>
      <trkpt lat="49.07109" lon="4.05208">
        <ele>83</ele>
        <time>2019-06-27T21:08:36Z</time>
      </trkpt>
      <trkpt lat="49.07458" lon="4.05846">
        <ele>87</ele>
        <time>2019-06-27T21:10:13Z</time>
      </trkpt>
      <trkpt lat="49.07505" lon="4.0593">
        <ele>88</ele>
        <time>2019-06-27T21:10:26Z</time>
      </trkpt>
      <trkpt lat="49.07511" lon="4.05954">
        <ele>87</ele>
        <time>2019-06-27T21:10:29Z</time>
      </trkpt>
      <trkpt lat="49.07503" lon="4.05956">
        <ele>87</ele>
        <time>2019-06-27T21:10:30Z</time>
      </trkpt>
      <trkpt lat="49.07497" lon="4.05961">
        <ele>88</ele>
        <time>2019-06-27T21:10:31Z</time>
      </trkpt>
      <trkpt lat="49.07492" lon="4.05969">
        <ele>88</ele>
        <time>2019-06-27T21:10:33Z</time>
      </trkpt>
      <trkpt lat="49.07488" lon="4.05979">
        <ele>88</ele>
        <time>2019-06-27T21:10:34Z</time>
      </trkpt>
      <trkpt lat="49.07487" lon="4.05989">
        <ele>88</ele>
        <time>2019-06-27T21:10:35Z</time>
      </trkpt>
      <trkpt lat="49.07488" lon="4.05999">
        <ele>88</ele>
        <time>2019-06-27T21:10:36Z</time>
      </trkpt>
      <trkpt lat="49.07491" lon="4.06009">
        <ele>88</ele>
        <time>2019-06-27T21:10:38Z</time>
      </trkpt>
      <trkpt lat="49.07496" lon="4.06016">
        <ele>88</ele>
        <time>2019-06-27T21:10:39Z</time>
      </trkpt>
      <trkpt lat="49.07502" lon="4.06021">
        <ele>88</ele>
        <time>2019-06-27T21:10:40Z</time>
      </trkpt>
      <trkpt lat="49.07508" lon="4.06023">
        <ele>88</ele>
        <time>2019-06-27T21:10:41Z</time>
      </trkpt>
      <trkpt lat="49.07514" lon="4.06023">
        <ele>88</ele>
        <time>2019-06-27T21:10:42Z</time>
      </trkpt>
      <trkpt lat="49.0752" lon="4.06019">
        <ele>88</ele>
        <time>2019-06-27T21:10:43Z</time>
      </trkpt>
      <trkpt lat="49.07526" lon="4.06013">
        <ele>88</ele>
        <time>2019-06-27T21:10:45Z</time>
      </trkpt>
      <trkpt lat="49.0753" lon="4.06005">
        <ele>87</ele>
        <time>2019-06-27T21:10:46Z</time>
      </trkpt>
      <trkpt lat="49.07596" lon="4.06056">
        <ele>88</ele>
        <time>2019-06-27T21:10:59Z</time>
      </trkpt>
      <trkpt lat="49.07676" lon="4.06121">
        <ele>90</ele>
        <time>2019-06-27T21:11:15Z</time>
      </trkpt>
      <trkpt lat="49.07694" lon="4.06138">
        <ele>91</ele>
        <time>2019-06-27T21:11:19Z</time>
      </trkpt>
      <trkpt lat="49.07721" lon="4.06173">
        <ele>91</ele>
        <time>2019-06-27T21:11:25Z</time>
      </trkpt>
      <trkpt lat="49.07753" lon="4.06221">
        <ele>92</ele>
        <time>2019-06-27T21:11:33Z</time>
      </trkpt>
      <trkpt lat="49.07877" lon="4.06424">
        <ele>91</ele>
        <time>2019-06-27T21:12:05Z</time>
      </trkpt>
      <trkpt lat="49.07914" lon="4.06495">
        <ele>91</ele>
        <time>2019-06-27T21:12:16Z</time>
      </trkpt>
      <trkpt lat="49.07933" lon="4.06543">
        <ele>91</ele>
        <time>2019-06-27T21:12:23Z</time>
      </trkpt>
      <trkpt lat="49.07952" lon="4.06609">
        <ele>93</ele>
        <time>2019-06-27T21:12:31Z</time>
      </trkpt>
      <trkpt lat="49.07962" lon="4.06654">
        <ele>93</ele>
        <time>2019-06-27T21:12:36Z</time>
      </trkpt>
      <trkpt lat="49.07988" lon="4.06833">
        <ele>92</ele>
        <time>2019-06-27T21:12:58Z</time>
      </trkpt>
      <trkpt lat="49.08003" lon="4.06957">
        <ele>90</ele>
        <time>2019-06-27T21:13:13Z</time>
      </trkpt>
      <trkpt lat="49.08029" lon="4.07117">
        <ele>91</ele>
        <time>2019-06-27T21:13:32Z</time>
      </trkpt>
      <trkpt lat="49.08036" lon="4.07178">
        <ele>92</ele>
        <time>2019-06-27T21:13:39Z</time>
      </trkpt>
      <trkpt lat="49.08036" lon="4.0723">
        <ele>92</ele>
        <time>2019-06-27T21:13:45Z</time>
      </trkpt>
      <trkpt lat="49.08033" lon="4.07284">
        <ele>92</ele>
        <time>2019-06-27T21:13:51Z</time>
      </trkpt>
      <trkpt lat="49.07944" lon="4.07935">
        <ele>96</ele>
        <time>2019-06-27T21:15:09Z</time>
      </trkpt>
      <trkpt lat="49.07941" lon="4.08001">
        <ele>97</ele>
        <time>2019-06-27T21:15:17Z</time>
      </trkpt>
      <trkpt lat="49.07943" lon="4.08052">
        <ele>98</ele>
        <time>2019-06-27T21:15:23Z</time>
      </trkpt>
      <trkpt lat="49.0795" lon="4.08116">
        <ele>99</ele>
        <time>2019-06-27T21:15:30Z</time>
      </trkpt>
      <trkpt lat="49.08054" lon="4.08532">
        <ele>98</ele>
        <time>2019-06-27T21:16:22Z</time>
      </trkpt>
      <trkpt lat="49.08142" lon="4.08839">
        <ele>100</ele>
        <time>2019-06-27T21:17:01Z</time>
      </trkpt>
      <trkpt lat="49.08229" lon="4.09129">
        <ele>99</ele>
        <time>2019-06-27T21:17:38Z</time>
      </trkpt>
      <trkpt lat="49.08246" lon="4.09182">
        <ele>98</ele>
        <time>2019-06-27T21:17:45Z</time>
      </trkpt>
      <trkpt lat="49.08255" lon="4.09205">
        <ele>98</ele>
        <time>2019-06-27T21:17:48Z</time>
      </trkpt>
      <trkpt lat="49.08274" lon="4.0924">
        <ele>99</ele>
        <time>2019-06-27T21:17:53Z</time>
      </trkpt>
      <trkpt lat="49.08297" lon="4.09274">
        <ele>99</ele>
        <time>2019-06-27T21:17:59Z</time>
      </trkpt>
      <trkpt lat="49.08324" lon="4.09304">
        <ele>97</ele>
        <time>2019-06-27T21:18:05Z</time>
      </trkpt>
      <trkpt lat="49.08535" lon="4.09457">
        <ele>99</ele>
        <time>2019-06-27T21:18:47Z</time>
      </trkpt>
      <trkpt lat="49.0855" lon="4.0947">
        <ele>99</ele>
        <time>2019-06-27T21:18:50Z</time>
      </trkpt>
      <trkpt lat="49.08574" lon="4.095">
        <ele>100</ele>
        <time>2019-06-27T21:18:55Z</time>
      </trkpt>
      <trkpt lat="49.08583" lon="4.09505">
        <ele>100</ele>
        <time>2019-06-27T21:18:57Z</time>
      </trkpt>
      <trkpt lat="49.08583" lon="4.09509">
        <ele>100</ele>
        <time>2019-06-27T21:18:57Z</time>
      </trkpt>
      <trkpt lat="49.08587" lon="4.09519">
        <ele>100</ele>
        <time>2019-06-27T21:18:59Z</time>
      </trkpt>
      <trkpt lat="49.08594" lon="4.0952">
        <ele>101</ele>
        <time>2019-06-27T21:19:00Z</time>
      </trkpt>
      <trkpt lat="49.08599" lon="4.09512">
        <ele>101</ele>
        <time>2019-06-27T21:19:01Z</time>
      </trkpt>
      <trkpt lat="49.08599" lon="4.09508">
        <ele>101</ele>
        <time>2019-06-27T21:19:02Z</time>
      </trkpt>
      <trkpt lat="49.08608" lon="4.09509">
        <ele>102</ele>
        <time>2019-06-27T21:19:03Z</time>
      </trkpt>
      <trkpt lat="49.08733" lon="4.09606">
        <ele>110</ele>
        <time>2019-06-27T21:19:28Z</time>
      </trkpt>
      <trkpt lat="49.0875" lon="4.09625">
        <ele>109</ele>
        <time>2019-06-27T21:19:32Z</time>
      </trkpt>
      <trkpt lat="49.08861" lon="4.09765">
        <ele>110</ele>
        <time>2019-06-27T21:19:58Z</time>
      </trkpt>
      <trkpt lat="49.09025" lon="4.09985">
        <ele>114</ele>
        <time>2019-06-27T21:20:37Z</time>
      </trkpt>
      <trkpt lat="49.0924" lon="4.10261">
        <ele>115</ele>
        <time>2019-06-27T21:21:27Z</time>
      </trkpt>
      <trkpt lat="49.0975" lon="4.1093">
        <ele>113</ele>
        <time>2019-06-27T21:23:26Z</time>
      </trkpt>
      <trkpt lat="49.09926" lon="4.11164">
        <ele>118</ele>
        <time>2019-06-27T21:24:08Z</time>
      </trkpt>
      <trkpt lat="49.09981" lon="4.11233">
        <ele>119</ele>
        <time>2019-06-27T21:24:20Z</time>
      </trkpt>
      <trkpt lat="49.10144" lon="4.1145">
        <ele>118</ele>
        <time>2019-06-27T21:24:59Z</time>
      </trkpt>
      <trkpt lat="49.10137" lon="4.11464">
        <ele>118</ele>
        <time>2019-06-27T21:25:01Z</time>
      </trkpt>
      <trkpt lat="49.10114" lon="4.11493">
        <ele>117</ele>
        <time>2019-06-27T21:25:06Z</time>
      </trkpt>
      <trkpt lat="49.10138" lon="4.11542">
        <ele>118</ele>
        <time>2019-06-27T21:25:13Z</time>
      </trkpt>
      <trkpt lat="49.10151" lon="4.1156">
        <ele>118</ele>
        <time>2019-06-27T21:25:16Z</time>
      </trkpt>
      <trkpt lat="49.10145" lon="4.11572">
        <ele>118</ele>
        <time>2019-06-27T21:25:18Z</time>
      </trkpt>
      <trkpt lat="49.10104" lon="4.11622">
        <ele>118</ele>
        <time>2019-06-27T21:25:28Z</time>
      </trkpt>
      <trkpt lat="49.10094" lon="4.11637">
        <ele>118</ele>
        <time>2019-06-27T21:25:30Z</time>
      </trkpt>
      <trkpt lat="49.10085" lon="4.11671">
        <ele>118</ele>
        <time>2019-06-27T21:25:34Z</time>
      </trkpt>
      <trkpt lat="49.10053" lon="4.11757">
        <ele>124</ele>
        <time>2019-06-27T21:25:46Z</time>
      </trkpt>
      <trkpt lat="49.10053" lon="4.11765">
        <ele>124</ele>
        <time>2019-06-27T21:25:47Z</time>
      </trkpt>
      <trkpt lat="49.10059" lon="4.11772">
        <ele>125</ele>
        <time>2019-06-27T21:25:48Z</time>
      </trkpt>
      <trkpt lat="49.10094" lon="4.11791">
        <ele>126</ele>
        <time>2019-06-27T21:25:55Z</time>
      </trkpt>
      <trkpt lat="49.10128" lon="4.11821">
        <ele>125</ele>
        <time>2019-06-27T21:26:02Z</time>
      </trkpt>
      <trkpt lat="49.10148" lon="4.1185">
        <ele>125</ele>
        <time>2019-06-27T21:26:07Z</time>
      </trkpt>
      <trkpt lat="49.10197" lon="4.11947">
        <ele>129</ele>
        <time>2019-06-27T21:26:21Z</time>
      </trkpt>
      <trkpt lat="49.10226" lon="4.11997">
        <ele>129</ele>
        <time>2019-06-27T21:26:29Z</time>
      </trkpt>
      <trkpt lat="49.10342" lon="4.12152">
        <ele>133</ele>
        <time>2019-06-27T21:26:56Z</time>
      </trkpt>
      <trkpt lat="49.10341" lon="4.12154">
        <ele>133</ele>
        <time>2019-06-27T21:26:56Z</time>
      </trkpt>
      <trkpt lat="49.10342" lon="4.12152">
        <ele>133</ele>
        <time>2019-06-27T21:26:57Z</time>
      </trkpt>
      <trkpt lat="49.10408" lon="4.1224">
        <ele>139</ele>
        <time>2019-06-27T21:27:12Z</time>
      </trkpt>
      <trkpt lat="49.10439" lon="4.12294">
        <ele>140</ele>
        <time>2019-06-27T21:27:21Z</time>
      </trkpt>
      <trkpt lat="49.10546" lon="4.1251">
        <ele>143</ele>
        <time>2019-06-27T21:27:52Z</time>
      </trkpt>
      <trkpt lat="49.10568" lon="4.12544">
        <ele>145</ele>
        <time>2019-06-27T21:27:58Z</time>
      </trkpt>
      <trkpt lat="49.10646" lon="4.1263">
        <ele>149</ele>
        <time>2019-06-27T21:28:15Z</time>
      </trkpt>
      <trkpt lat="49.10677" lon="4.1267">
        <ele>150</ele>
        <time>2019-06-27T21:28:22Z</time>
      </trkpt>
      <trkpt lat="49.10699" lon="4.12711">
        <ele>154</ele>
        <time>2019-06-27T21:28:28Z</time>
      </trkpt>
      <trkpt lat="49.10773" lon="4.12877">
        <ele>154</ele>
        <time>2019-06-27T21:28:52Z</time>
      </trkpt>
      <trkpt lat="49.10784" lon="4.12933">
        <ele>157</ele>
        <time>2019-06-27T21:28:58Z</time>
      </trkpt>
      <trkpt lat="49.10788" lon="4.12986">
        <ele>157</ele>
        <time>2019-06-27T21:29:05Z</time>
      </trkpt>
      <trkpt lat="49.10768" lon="4.13389">
        <ele>157</ele>
        <time>2019-06-27T21:29:52Z</time>
      </trkpt>
      <trkpt lat="49.10719" lon="4.13789">
        <ele>164</ele>
        <time>2019-06-27T21:30:39Z</time>
      </trkpt>
      <trkpt lat="49.10718" lon="4.13821">
        <ele>164</ele>
        <time>2019-06-27T21:30:43Z</time>
      </trkpt>
      <trkpt lat="49.10723" lon="4.1386">
        <ele>163</ele>
        <time>2019-06-27T21:30:48Z</time>
      </trkpt>
      <trkpt lat="49.10736" lon="4.13897">
        <ele>162</ele>
        <time>2019-06-27T21:30:52Z</time>
      </trkpt>
      <trkpt lat="49.10755" lon="4.13927">
        <ele>163</ele>
        <time>2019-06-27T21:30:57Z</time>
      </trkpt>
      <trkpt lat="49.10774" lon="4.1395">
        <ele>165</ele>
        <time>2019-06-27T21:31:02Z</time>
      </trkpt>
      <trkpt lat="49.10839" lon="4.14">
        <ele>170</ele>
        <time>2019-06-27T21:31:15Z</time>
      </trkpt>
      <trkpt lat="49.10902" lon="4.14041">
        <ele>174</ele>
        <time>2019-06-27T21:31:27Z</time>
      </trkpt>
      <trkpt lat="49.11014" lon="4.14098">
        <ele>177</ele>
        <time>2019-06-27T21:31:48Z</time>
      </trkpt>
      <trkpt lat="49.11033" lon="4.14103">
        <ele>180</ele>
        <time>2019-06-27T21:31:51Z</time>
      </trkpt>
      <trkpt lat="49.11048" lon="4.14104">
        <ele>182</ele>
        <time>2019-06-27T21:31:54Z</time>
      </trkpt>
      <trkpt lat="49.11077" lon="4.14097">
        <ele>185</ele>
        <time>2019-06-27T21:31:59Z</time>
      </trkpt>
      <trkpt lat="49.11212" lon="4.14019">
        <ele>196</ele>
        <time>2019-06-27T21:32:25Z</time>
      </trkpt>
      <trkpt lat="49.11256" lon="4.13977">
        <ele>202</ele>
        <time>2019-06-27T21:32:34Z</time>
      </trkpt>
      <trkpt lat="49.11367" lon="4.13841">
        <ele>201</ele>
        <time>2019-06-27T21:32:59Z</time>
      </trkpt>
      <trkpt lat="49.11425" lon="4.13782">
        <ele>205</ele>
        <time>2019-06-27T21:33:12Z</time>
      </trkpt>
      <trkpt lat="49.11634" lon="4.13613">
        <ele>220</ele>
        <time>2019-06-27T21:33:54Z</time>
      </trkpt>
      <trkpt lat="49.11656" lon="4.13599">
        <ele>221</ele>
        <time>2019-06-27T21:33:58Z</time>
      </trkpt>
      <trkpt lat="49.11692" lon="4.13598">
        <ele>221</ele>
        <time>2019-06-27T21:34:04Z</time>
      </trkpt>
      <trkpt lat="49.11944" lon="4.13676">
        <ele>226</ele>
        <time>2019-06-27T21:34:50Z</time>
      </trkpt>
      <trkpt lat="49.11976" lon="4.1369">
        <ele>228</ele>
        <time>2019-06-27T21:34:56Z</time>
      </trkpt>
      <trkpt lat="49.11997" lon="4.13703">
        <ele>228</ele>
        <time>2019-06-27T21:35:00Z</time>
      </trkpt>
      <trkpt lat="49.13087" lon="4.1482">
        <ele>284</ele>
        <time>2019-06-27T21:38:54Z</time>
      </trkpt>
      <trkpt lat="49.13537" lon="4.15121">
        <ele>284</ele>
        <time>2019-06-27T21:40:21Z</time>
      </trkpt>
      <trkpt lat="49.13992" lon="4.15435">
        <ele>292</ele>
        <time>2019-06-27T21:41:50Z</time>
      </trkpt>
      <trkpt lat="49.14028" lon="4.15455">
        <ele>290</ele>
        <time>2019-06-27T21:41:57Z</time>
      </trkpt>
      <trkpt lat="49.14297" lon="4.15568">
        <ele>284</ele>
        <time>2019-06-27T21:42:46Z</time>
      </trkpt>
      <trkpt lat="49.14312" lon="4.15592">
        <ele>282</ele>
        <time>2019-06-27T21:42:50Z</time>
      </trkpt>
      <trkpt lat="49.14355" lon="4.15682">
        <ele>271</ele>
        <time>2019-06-27T21:43:03Z</time>
      </trkpt>
      <trkpt lat="49.14373" lon="4.15715">
        <ele>268</ele>
        <time>2019-06-27T21:43:08Z</time>
      </trkpt>
      <trkpt lat="49.14395" lon="4.15744">
        <ele>264</ele>
        <time>2019-06-27T21:43:13Z</time>
      </trkpt>
      <trkpt lat="49.14408" lon="4.15751">
        <ele>263</ele>
        <time>2019-06-27T21:43:16Z</time>
      </trkpt>
      <trkpt lat="49.14428" lon="4.15756">
        <ele>262</ele>
        <time>2019-06-27T21:43:19Z</time>
      </trkpt>
      <trkpt lat="49.14551" lon="4.15775">
        <ele>257</ele>
        <time>2019-06-27T21:43:41Z</time>
      </trkpt>
      <trkpt lat="49.1457" lon="4.15774">
        <ele>256</ele>
        <time>2019-06-27T21:43:45Z</time>
      </trkpt>
      <trkpt lat="49.14587" lon="4.1577">
        <ele>255</ele>
        <time>2019-06-27T21:43:48Z</time>
      </trkpt>
      <trkpt lat="49.14618" lon="4.15767">
        <ele>255</ele>
        <time>2019-06-27T21:43:53Z</time>
      </trkpt>
      <trkpt lat="49.14629" lon="4.15767">
        <ele>254</ele>
        <time>2019-06-27T21:43:55Z</time>
      </trkpt>
      <trkpt lat="49.14676" lon="4.15784">
        <ele>248</ele>
        <time>2019-06-27T21:44:04Z</time>
      </trkpt>
      <trkpt lat="49.14704" lon="4.15806">
        <ele>244</ele>
        <time>2019-06-27T21:44:09Z</time>
      </trkpt>
      <trkpt lat="49.14717" lon="4.15821">
        <ele>242</ele>
        <time>2019-06-27T21:44:12Z</time>
      </trkpt>
      <trkpt lat="49.14746" lon="4.15862">
        <ele>235</ele>
        <time>2019-06-27T21:44:19Z</time>
      </trkpt>
      <trkpt lat="49.1476" lon="4.15877">
        <ele>231</ele>
        <time>2019-06-27T21:44:22Z</time>
      </trkpt>
      <trkpt lat="49.14774" lon="4.15882">
        <ele>228</ele>
        <time>2019-06-27T21:44:25Z</time>
      </trkpt>
      <trkpt lat="49.14798" lon="4.15883">
        <ele>225</ele>
        <time>2019-06-27T21:44:29Z</time>
      </trkpt>
      <trkpt lat="49.14838" lon="4.15867">
        <ele>224</ele>
        <time>2019-06-27T21:44:37Z</time>
      </trkpt>
      <trkpt lat="49.14851" lon="4.15864">
        <ele>224</ele>
        <time>2019-06-27T21:44:39Z</time>
      </trkpt>
      <trkpt lat="49.14863" lon="4.15864">
        <ele>223</ele>
        <time>2019-06-27T21:44:41Z</time>
      </trkpt>
      <trkpt lat="49.1488" lon="4.1587">
        <ele>221</ele>
        <time>2019-06-27T21:44:44Z</time>
      </trkpt>
      <trkpt lat="49.14913" lon="4.15895">
        <ele>214</ele>
        <time>2019-06-27T21:44:51Z</time>
      </trkpt>
      <trkpt lat="49.14938" lon="4.15922">
        <ele>209</ele>
        <time>2019-06-27T21:44:56Z</time>
      </trkpt>
      <trkpt lat="49.14947" lon="4.15937">
        <ele>208</ele>
        <time>2019-06-27T21:44:59Z</time>
      </trkpt>
      <trkpt lat="49.14952" lon="4.15957">
        <ele>206</ele>
        <time>2019-06-27T21:45:01Z</time>
      </trkpt>
      <trkpt lat="49.14952" lon="4.15975">
        <ele>204</ele>
        <time>2019-06-27T21:45:03Z</time>
      </trkpt>
      <trkpt lat="49.14941" lon="4.16035">
        <ele>199</ele>
        <time>2019-06-27T21:45:10Z</time>
      </trkpt>
      <trkpt lat="49.14935" lon="4.16155">
        <ele>189</ele>
        <time>2019-06-27T21:45:24Z</time>
      </trkpt>
      <trkpt lat="49.14935" lon="4.16183">
        <ele>188</ele>
        <time>2019-06-27T21:45:28Z</time>
      </trkpt>
      <trkpt lat="49.14941" lon="4.16265">
        <ele>186</ele>
        <time>2019-06-27T21:45:37Z</time>
      </trkpt>
      <trkpt lat="49.15071" lon="4.16114">
        <ele>187</ele>
        <time>2019-06-27T21:46:06Z</time>
      </trkpt>
      <trkpt lat="49.15077" lon="4.16109">
        <ele>186</ele>
        <time>2019-06-27T21:46:08Z</time>
      </trkpt>
      <trkpt lat="49.15078" lon="4.16111">
        <ele>186</ele>
        <time>2019-06-27T21:46:08Z</time>
      </trkpt>
      <trkpt lat="49.15077" lon="4.16109">
        <ele>186</ele>
        <time>2019-06-27T21:46:08Z</time>
      </trkpt>
      <trkpt lat="49.15137" lon="4.16055">
        <ele>184</ele>
        <time>2019-06-27T21:46:21Z</time>
      </trkpt>
      <trkpt lat="49.15144" lon="4.16046">
        <ele>184</ele>
        <time>2019-06-27T21:46:22Z</time>
      </trkpt>
      <trkpt lat="49.15163" lon="4.16013">
        <ele>183</ele>
        <time>2019-06-27T21:46:27Z</time>
      </trkpt>
      <trkpt lat="49.15169" lon="4.15993">
        <ele>183</ele>
        <time>2019-06-27T21:46:30Z</time>
      </trkpt>
      <trkpt lat="49.1517" lon="4.15973">
        <ele>182</ele>
        <time>2019-06-27T21:46:32Z</time>
      </trkpt>
      <trkpt lat="49.15164" lon="4.15949">
        <ele>182</ele>
        <time>2019-06-27T21:46:35Z</time>
      </trkpt>
      <trkpt lat="49.1511" lon="4.15791">
        <ele>184</ele>
        <time>2019-06-27T21:46:56Z</time>
      </trkpt>
      <trkpt lat="49.15109" lon="4.15777">
        <ele>183</ele>
        <time>2019-06-27T21:46:58Z</time>
      </trkpt>
      <trkpt lat="49.15111" lon="4.15758">
        <ele>182</ele>
        <time>2019-06-27T21:47:00Z</time>
      </trkpt>
      <trkpt lat="49.15117" lon="4.15743">
        <ele>180</ele>
        <time>2019-06-27T21:47:02Z</time>
      </trkpt>
      <trkpt lat="49.15158" lon="4.15683">
        <ele>176</ele>
        <time>2019-06-27T21:47:12Z</time>
      </trkpt>
      <trkpt lat="49.15195" lon="4.15635">
        <ele>180</ele>
        <time>2019-06-27T21:47:21Z</time>
      </trkpt>
      <trkpt lat="49.15206" lon="4.15628">
        <ele>181</ele>
        <time>2019-06-27T21:47:23Z</time>
      </trkpt>
      <trkpt lat="49.15243" lon="4.15614">
        <ele>184</ele>
        <time>2019-06-27T21:47:29Z</time>
      </trkpt>
      <trkpt lat="49.15256" lon="4.15605">
        <ele>185</ele>
        <time>2019-06-27T21:47:32Z</time>
      </trkpt>
      <trkpt lat="49.15303" lon="4.15558">
        <ele>189</ele>
        <time>2019-06-27T21:47:42Z</time>
      </trkpt>
      <trkpt lat="49.15355" lon="4.15499">
        <ele>193</ele>
        <time>2019-06-27T21:47:54Z</time>
      </trkpt>
      <trkpt lat="49.15414" lon="4.15417">
        <ele>198</ele>
        <time>2019-06-27T21:48:08Z</time>
      </trkpt>
      <trkpt lat="49.15432" lon="4.154">
        <ele>200</ele>
        <time>2019-06-27T21:48:11Z</time>
      </trkpt>
      <trkpt lat="49.15444" lon="4.15392">
        <ele>201</ele>
        <time>2019-06-27T21:48:14Z</time>
      </trkpt>
      <trkpt lat="49.1546" lon="4.15387">
        <ele>202</ele>
        <time>2019-06-27T21:48:17Z</time>
      </trkpt>
      <trkpt lat="49.15478" lon="4.15387">
        <ele>202</ele>
        <time>2019-06-27T21:48:20Z</time>
      </trkpt>
      <trkpt lat="49.15522" lon="4.15397">
        <ele>202</ele>
        <time>2019-06-27T21:48:28Z</time>
      </trkpt>
      <trkpt lat="49.15536" lon="4.15398">
        <ele>202</ele>
        <time>2019-06-27T21:48:30Z</time>
      </trkpt>
      <trkpt lat="49.15556" lon="4.15389">
        <ele>203</ele>
        <time>2019-06-27T21:48:34Z</time>
      </trkpt>
      <trkpt lat="49.15566" lon="4.15377">
        <ele>204</ele>
        <time>2019-06-27T21:48:36Z</time>
      </trkpt>
      <trkpt lat="49.15587" lon="4.15329">
        <ele>206</ele>
        <time>2019-06-27T21:48:43Z</time>
      </trkpt>
      <trkpt lat="49.15597" lon="4.15294">
        <ele>208</ele>
        <time>2019-06-27T21:48:47Z</time>
      </trkpt>
      <trkpt lat="49.156" lon="4.15272">
        <ele>209</ele>
        <time>2019-06-27T21:48:50Z</time>
      </trkpt>
      <trkpt lat="49.156" lon="4.15221">
        <ele>213</ele>
        <time>2019-06-27T21:48:56Z</time>
      </trkpt>
      <trkpt lat="49.15588" lon="4.1515">
        <ele>220</ele>
        <time>2019-06-27T21:49:05Z</time>
      </trkpt>
      <trkpt lat="49.15588" lon="4.15131">
        <ele>221</ele>
        <time>2019-06-27T21:49:07Z</time>
      </trkpt>
      <trkpt lat="49.1559" lon="4.15112">
        <ele>222</ele>
        <time>2019-06-27T21:49:09Z</time>
      </trkpt>
      <trkpt lat="49.15597" lon="4.15095">
        <ele>221</ele>
        <time>2019-06-27T21:49:11Z</time>
      </trkpt>
      <trkpt lat="49.15612" lon="4.15063">
        <ele>219</ele>
        <time>2019-06-27T21:49:16Z</time>
      </trkpt>
      <trkpt lat="49.15626" lon="4.15039">
        <ele>216</ele>
        <time>2019-06-27T21:49:20Z</time>
      </trkpt>
      <trkpt lat="49.15633" lon="4.15033">
        <ele>214</ele>
        <time>2019-06-27T21:49:21Z</time>
      </trkpt>
      <trkpt lat="49.15641" lon="4.15031">
        <ele>211</ele>
        <time>2019-06-27T21:49:23Z</time>
      </trkpt>
      <trkpt lat="49.15657" lon="4.15032">
        <ele>207</ele>
        <time>2019-06-27T21:49:25Z</time>
      </trkpt>
      <trkpt lat="49.15738" lon="4.15056">
        <ele>199</ele>
        <time>2019-06-27T21:49:40Z</time>
      </trkpt>
      <trkpt lat="49.1575" lon="4.15056">
        <ele>198</ele>
        <time>2019-06-27T21:49:42Z</time>
      </trkpt>
      <trkpt lat="49.15765" lon="4.1505">
        <ele>196</ele>
        <time>2019-06-27T21:49:45Z</time>
      </trkpt>
      <trkpt lat="49.15775" lon="4.15037">
        <ele>193</ele>
        <time>2019-06-27T21:49:47Z</time>
      </trkpt>
      <trkpt lat="49.15782" lon="4.15015">
        <ele>189</ele>
        <time>2019-06-27T21:49:50Z</time>
      </trkpt>
      <trkpt lat="49.15784" lon="4.14985">
        <ele>186</ele>
        <time>2019-06-27T21:49:54Z</time>
      </trkpt>
      <trkpt lat="49.15767" lon="4.14907">
        <ele>186</ele>
        <time>2019-06-27T21:50:03Z</time>
      </trkpt>
      <trkpt lat="49.15768" lon="4.14892">
        <ele>186</ele>
        <time>2019-06-27T21:50:05Z</time>
      </trkpt>
      <trkpt lat="49.15818" lon="4.14753">
        <ele>182</ele>
        <time>2019-06-27T21:50:23Z</time>
      </trkpt>
      <trkpt lat="49.15821" lon="4.1474">
        <ele>182</ele>
        <time>2019-06-27T21:50:25Z</time>
      </trkpt>
      <trkpt lat="49.15838" lon="4.14708">
        <ele>180</ele>
        <time>2019-06-27T21:50:30Z</time>
      </trkpt>
      <trkpt lat="49.1585" lon="4.14691">
        <ele>179</ele>
        <time>2019-06-27T21:50:33Z</time>
      </trkpt>
      <trkpt lat="49.15862" lon="4.14669">
        <ele>178</ele>
        <time>2019-06-27T21:50:36Z</time>
      </trkpt>
      <trkpt lat="49.15885" lon="4.1461">
        <ele>177</ele>
        <time>2019-06-27T21:50:44Z</time>
      </trkpt>
      <trkpt lat="49.15861" lon="4.14577">
        <ele>180</ele>
        <time>2019-06-27T21:50:50Z</time>
      </trkpt>
      <trkpt lat="49.15852" lon="4.14549">
        <ele>183</ele>
        <time>2019-06-27T21:50:53Z</time>
      </trkpt>
      <trkpt lat="49.15836" lon="4.14529">
        <ele>186</ele>
        <time>2019-06-27T21:50:57Z</time>
      </trkpt>
      <trkpt lat="49.15832" lon="4.14509">
        <ele>188</ele>
        <time>2019-06-27T21:51:00Z</time>
      </trkpt>
      <trkpt lat="49.15834" lon="4.14458">
        <ele>189</ele>
        <time>2019-06-27T21:51:05Z</time>
      </trkpt>
      <trkpt lat="49.15832" lon="4.14383">
        <ele>191</ele>
        <time>2019-06-27T21:51:14Z</time>
      </trkpt>
      <trkpt lat="49.15816" lon="4.14296">
        <ele>193</ele>
        <time>2019-06-27T21:51:25Z</time>
      </trkpt>
      <trkpt lat="49.15815" lon="4.14254">
        <ele>194</ele>
        <time>2019-06-27T21:51:30Z</time>
      </trkpt>
      <trkpt lat="49.1582" lon="4.14212">
        <ele>195</ele>
        <time>2019-06-27T21:51:35Z</time>
      </trkpt>
      <trkpt lat="49.15834" lon="4.14161">
        <ele>194</ele>
        <time>2019-06-27T21:51:41Z</time>
      </trkpt>
      <trkpt lat="49.15844" lon="4.14111">
        <ele>196</ele>
        <time>2019-06-27T21:51:47Z</time>
      </trkpt>
      <trkpt lat="49.15848" lon="4.14002">
        <ele>198</ele>
        <time>2019-06-27T21:52:00Z</time>
      </trkpt>
      <trkpt lat="49.15875" lon="4.13859">
        <ele>200</ele>
        <time>2019-06-27T21:52:17Z</time>
      </trkpt>
      <trkpt lat="49.15882" lon="4.13849">
        <ele>199</ele>
        <time>2019-06-27T21:52:19Z</time>
      </trkpt>
      <trkpt lat="49.15882" lon="4.13823">
        <ele>200</ele>
        <time>2019-06-27T21:52:22Z</time>
      </trkpt>
      <trkpt lat="49.15887" lon="4.13752">
        <ele>204</ele>
        <time>2019-06-27T21:52:30Z</time>
      </trkpt>
      <trkpt lat="49.15906" lon="4.13612">
        <ele>210</ele>
        <time>2019-06-27T21:52:47Z</time>
      </trkpt>
      <trkpt lat="49.15909" lon="4.13601">
        <ele>210</ele>
        <time>2019-06-27T21:52:48Z</time>
      </trkpt>
      <trkpt lat="49.15919" lon="4.13585">
        <ele>210</ele>
        <time>2019-06-27T21:52:51Z</time>
      </trkpt>
      <trkpt lat="49.15932" lon="4.13573">
        <ele>211</ele>
        <time>2019-06-27T21:52:53Z</time>
      </trkpt>
      <trkpt lat="49.16063" lon="4.13562">
        <ele>209</ele>
        <time>2019-06-27T21:53:17Z</time>
      </trkpt>
      <trkpt lat="49.16075" lon="4.13558">
        <ele>209</ele>
        <time>2019-06-27T21:53:19Z</time>
      </trkpt>
      <trkpt lat="49.1609" lon="4.13547">
        <ele>209</ele>
        <time>2019-06-27T21:53:22Z</time>
      </trkpt>
      <trkpt lat="49.16103" lon="4.1353">
        <ele>209</ele>
        <time>2019-06-27T21:53:25Z</time>
      </trkpt>
      <trkpt lat="49.16116" lon="4.13503">
        <ele>208</ele>
        <time>2019-06-27T21:53:29Z</time>
      </trkpt>
      <trkpt lat="49.16119" lon="4.13482">
        <ele>207</ele>
        <time>2019-06-27T21:53:31Z</time>
      </trkpt>
      <trkpt lat="49.1612" lon="4.13462">
        <ele>206</ele>
        <time>2019-06-27T21:53:34Z</time>
      </trkpt>
      <trkpt lat="49.16118" lon="4.13418">
        <ele>205</ele>
        <time>2019-06-27T21:53:39Z</time>
      </trkpt>
      <trkpt lat="49.16104" lon="4.133">
        <ele>202</ele>
        <time>2019-06-27T21:53:53Z</time>
      </trkpt>
      <trkpt lat="49.16101" lon="4.13254">
        <ele>200</ele>
        <time>2019-06-27T21:53:58Z</time>
      </trkpt>
      <trkpt lat="49.16099" lon="4.13099">
        <ele>199</ele>
        <time>2019-06-27T21:54:16Z</time>
      </trkpt>
      <trkpt lat="49.16097" lon="4.13074">
        <ele>198</ele>
        <time>2019-06-27T21:54:19Z</time>
      </trkpt>
      <trkpt lat="49.16088" lon="4.13051">
        <ele>198</ele>
        <time>2019-06-27T21:54:22Z</time>
      </trkpt>
      <trkpt lat="49.16078" lon="4.1304">
        <ele>198</ele>
        <time>2019-06-27T21:54:24Z</time>
      </trkpt>
      <trkpt lat="49.16059" lon="4.13027">
        <ele>199</ele>
        <time>2019-06-27T21:54:28Z</time>
      </trkpt>
      <trkpt lat="49.16009" lon="4.13004">
        <ele>203</ele>
        <time>2019-06-27T21:54:37Z</time>
      </trkpt>
      <trkpt lat="49.15994" lon="4.1298">
        <ele>203</ele>
        <time>2019-06-27T21:54:41Z</time>
      </trkpt>
      <trkpt lat="49.15987" lon="4.12962">
        <ele>203</ele>
        <time>2019-06-27T21:54:44Z</time>
      </trkpt>
      <trkpt lat="49.15896" lon="4.12462">
        <ele>178</ele>
        <time>2019-06-27T21:55:44Z</time>
      </trkpt>
      <trkpt lat="49.15881" lon="4.12364">
        <ele>175</ele>
        <time>2019-06-27T21:55:56Z</time>
      </trkpt>
      <trkpt lat="49.15878" lon="4.12322">
        <ele>174</ele>
        <time>2019-06-27T21:56:01Z</time>
      </trkpt>
      <trkpt lat="49.15869" lon="4.12059">
        <ele>171</ele>
        <time>2019-06-27T21:56:31Z</time>
      </trkpt>
      <trkpt lat="49.15867" lon="4.12039">
        <ele>171</ele>
        <time>2019-06-27T21:56:34Z</time>
      </trkpt>
      <trkpt lat="49.15862" lon="4.12008">
        <ele>171</ele>
        <time>2019-06-27T21:56:38Z</time>
      </trkpt>
      <trkpt lat="49.15801" lon="4.11811">
        <ele>161</ele>
        <time>2019-06-27T21:57:03Z</time>
      </trkpt>
      <trkpt lat="49.15791" lon="4.11745">
        <ele>160</ele>
        <time>2019-06-27T21:57:11Z</time>
      </trkpt>
      <trkpt lat="49.15787" lon="4.11683">
        <ele>160</ele>
        <time>2019-06-27T21:57:18Z</time>
      </trkpt>
      <trkpt lat="49.15786" lon="4.11628">
        <ele>161</ele>
        <time>2019-06-27T21:57:24Z</time>
      </trkpt>
      <trkpt lat="49.15793" lon="4.1153">
        <ele>160</ele>
        <time>2019-06-27T21:57:36Z</time>
      </trkpt>
      <trkpt lat="49.15792" lon="4.11488">
        <ele>160</ele>
        <time>2019-06-27T21:57:41Z</time>
      </trkpt>
      <trkpt lat="49.15767" lon="4.11288">
        <ele>163</ele>
        <time>2019-06-27T21:58:04Z</time>
      </trkpt>
      <trkpt lat="49.1576" lon="4.11198">
        <ele>164</ele>
        <time>2019-06-27T21:58:15Z</time>
      </trkpt>
      <trkpt lat="49.15758" lon="4.1118">
        <ele>164</ele>
        <time>2019-06-27T21:58:17Z</time>
      </trkpt>
      <trkpt lat="49.15761" lon="4.1117">
        <ele>164</ele>
        <time>2019-06-27T21:58:18Z</time>
      </trkpt>
      <trkpt lat="49.15768" lon="4.11161">
        <ele>164</ele>
        <time>2019-06-27T21:58:20Z</time>
      </trkpt>
      <trkpt lat="49.1579" lon="4.1116">
        <ele>165</ele>
        <time>2019-06-27T21:58:24Z</time>
      </trkpt>
      <trkpt lat="49.158" lon="4.11155">
        <ele>165</ele>
        <time>2019-06-27T21:58:26Z</time>
      </trkpt>
      <trkpt lat="49.15807" lon="4.11146">
        <ele>165</ele>
        <time>2019-06-27T21:58:27Z</time>
      </trkpt>
      <trkpt lat="49.15808" lon="4.11139">
        <ele>165</ele>
        <time>2019-06-27T21:58:28Z</time>
      </trkpt>
      <trkpt lat="49.15802" lon="4.11035">
        <ele>168</ele>
        <time>2019-06-27T21:58:40Z</time>
      </trkpt>
      <trkpt lat="49.158" lon="4.10958">
        <ele>168</ele>
        <time>2019-06-27T21:58:49Z</time>
      </trkpt>
      <trkpt lat="49.15788" lon="4.10698">
        <ele>167</ele>
        <time>2019-06-27T21:59:20Z</time>
      </trkpt>
      <trkpt lat="49.15787" lon="4.10652">
        <ele>167</ele>
        <time>2019-06-27T21:59:25Z</time>
      </trkpt>
      <trkpt lat="49.15792" lon="4.10506">
        <ele>168</ele>
        <time>2019-06-27T21:59:42Z</time>
      </trkpt>
      <trkpt lat="49.15796" lon="4.10445">
        <ele>167</ele>
        <time>2019-06-27T21:59:49Z</time>
      </trkpt>
      <trkpt lat="49.15796" lon="4.10397">
        <ele>165</ele>
        <time>2019-06-27T21:59:55Z</time>
      </trkpt>
      <trkpt lat="49.15791" lon="4.10354">
        <ele>163</ele>
        <time>2019-06-27T22:00:00Z</time>
      </trkpt>
      <trkpt lat="49.15783" lon="4.10325">
        <ele>161</ele>
        <time>2019-06-27T22:00:04Z</time>
      </trkpt>
      <trkpt lat="49.15768" lon="4.10302">
        <ele>160</ele>
        <time>2019-06-27T22:00:07Z</time>
      </trkpt>
      <trkpt lat="49.15756" lon="4.1029">
        <ele>159</ele>
        <time>2019-06-27T22:00:10Z</time>
      </trkpt>
      <trkpt lat="49.15735" lon="4.10282">
        <ele>159</ele>
        <time>2019-06-27T22:00:14Z</time>
      </trkpt>
      <trkpt lat="49.15678" lon="4.1027">
        <ele>159</ele>
        <time>2019-06-27T22:00:24Z</time>
      </trkpt>
      <trkpt lat="49.15666" lon="4.10263">
        <ele>158</ele>
        <time>2019-06-27T22:00:26Z</time>
      </trkpt>
      <trkpt lat="49.15649" lon="4.10244">
        <ele>158</ele>
        <time>2019-06-27T22:00:30Z</time>
      </trkpt>
      <trkpt lat="49.15644" lon="4.10227">
        <ele>157</ele>
        <time>2019-06-27T22:00:32Z</time>
      </trkpt>
      <trkpt lat="49.15642" lon="4.10206">
        <ele>157</ele>
        <time>2019-06-27T22:00:35Z</time>
      </trkpt>
      <trkpt lat="49.15635" lon="4.10011">
        <ele>157</ele>
        <time>2019-06-27T22:00:57Z</time>
      </trkpt>
      <trkpt lat="49.15633" lon="4.09906">
        <ele>160</ele>
        <time>2019-06-27T22:01:10Z</time>
      </trkpt>
      <trkpt lat="49.15628" lon="4.09767">
        <ele>163</ele>
        <time>2019-06-27T22:01:26Z</time>
      </trkpt>
      <trkpt lat="49.15627" lon="4.09657">
        <ele>160</ele>
        <time>2019-06-27T22:01:39Z</time>
      </trkpt>
      <trkpt lat="49.15642" lon="4.09328">
        <ele>163</ele>
        <time>2019-06-27T22:02:17Z</time>
      </trkpt>
      <trkpt lat="49.15646" lon="4.09312">
        <ele>162</ele>
        <time>2019-06-27T22:02:19Z</time>
      </trkpt>
      <trkpt lat="49.15658" lon="4.09286">
        <ele>160</ele>
        <time>2019-06-27T22:02:23Z</time>
      </trkpt>
      <trkpt lat="49.15642" lon="4.09269">
        <ele>161</ele>
        <time>2019-06-27T22:02:26Z</time>
      </trkpt>
      <trkpt lat="49.15643" lon="4.09216">
        <ele>160</ele>
        <time>2019-06-27T22:02:32Z</time>
      </trkpt>
      <trkpt lat="49.15639" lon="4.09121">
        <ele>160</ele>
        <time>2019-06-27T22:02:43Z</time>
      </trkpt>
      <trkpt lat="49.15637" lon="4.0909">
        <ele>160</ele>
        <time>2019-06-27T22:02:47Z</time>
      </trkpt>
      <trkpt lat="49.15628" lon="4.09033">
        <ele>158</ele>
        <time>2019-06-27T22:02:54Z</time>
      </trkpt>
      <trkpt lat="49.15579" lon="4.0882">
        <ele>147</ele>
        <time>2019-06-27T22:03:20Z</time>
      </trkpt>
      <trkpt lat="49.15558" lon="4.08738">
        <ele>146</ele>
        <time>2019-06-27T22:03:30Z</time>
      </trkpt>
      <trkpt lat="49.15495" lon="4.08506">
        <ele>145</ele>
        <time>2019-06-27T22:04:00Z</time>
      </trkpt>
      <trkpt lat="49.15475" lon="4.08393">
        <ele>147</ele>
        <time>2019-06-27T22:04:13Z</time>
      </trkpt>
      <trkpt lat="49.15462" lon="4.08306">
        <ele>152</ele>
        <time>2019-06-27T22:04:24Z</time>
      </trkpt>
      <trkpt lat="49.15461" lon="4.08294">
        <ele>152</ele>
        <time>2019-06-27T22:04:25Z</time>
      </trkpt>
      <trkpt lat="49.15466" lon="4.08255">
        <ele>153</ele>
        <time>2019-06-27T22:04:30Z</time>
      </trkpt>
      <trkpt lat="49.15491" lon="4.08092">
        <ele>150</ele>
        <time>2019-06-27T22:04:49Z</time>
      </trkpt>
      <trkpt lat="49.15496" lon="4.08057">
        <ele>149</ele>
        <time>2019-06-27T22:04:53Z</time>
      </trkpt>
      <trkpt lat="49.15499" lon="4.08007">
        <ele>148</ele>
        <time>2019-06-27T22:04:59Z</time>
      </trkpt>
      <trkpt lat="49.15511" lon="4.08">
        <ele>147</ele>
        <time>2019-06-27T22:05:01Z</time>
      </trkpt>
      <trkpt lat="49.15514" lon="4.0799">
        <ele>147</ele>
        <time>2019-06-27T22:05:03Z</time>
      </trkpt>
      <trkpt lat="49.15534" lon="4.07866">
        <ele>146</ele>
        <time>2019-06-27T22:05:18Z</time>
      </trkpt>
      <trkpt lat="49.15597" lon="4.07551">
        <ele>144</ele>
        <time>2019-06-27T22:05:56Z</time>
      </trkpt>
      <trkpt lat="49.15715" lon="4.06799">
        <ele>160</ele>
        <time>2019-06-27T22:07:26Z</time>
      </trkpt>
      <trkpt lat="49.15744" lon="4.06602">
        <ele>160</ele>
        <time>2019-06-27T22:07:49Z</time>
      </trkpt>
      <trkpt lat="49.15748" lon="4.06562">
        <ele>159</ele>
        <time>2019-06-27T22:07:54Z</time>
      </trkpt>
      <trkpt lat="49.15748" lon="4.06456">
        <ele>153</ele>
        <time>2019-06-27T22:08:06Z</time>
      </trkpt>
      <trkpt lat="49.15751" lon="4.06425">
        <ele>151</ele>
        <time>2019-06-27T22:08:10Z</time>
      </trkpt>
      <trkpt lat="49.15756" lon="4.06423">
        <ele>151</ele>
        <time>2019-06-27T22:08:11Z</time>
      </trkpt>
      <trkpt lat="49.15758" lon="4.06418">
        <ele>151</ele>
        <time>2019-06-27T22:08:12Z</time>
      </trkpt>
      <trkpt lat="49.15758" lon="4.06413">
        <ele>151</ele>
        <time>2019-06-27T22:08:12Z</time>
      </trkpt>
      <trkpt lat="49.15753" lon="4.06408">
        <ele>151</ele>
        <time>2019-06-27T22:08:13Z</time>
      </trkpt>
      <trkpt lat="49.15747" lon="4.06413">
        <ele>151</ele>
        <time>2019-06-27T22:08:15Z</time>
      </trkpt>
      <trkpt lat="49.15668" lon="4.06331">
        <ele>153</ele>
        <time>2019-06-27T22:08:32Z</time>
      </trkpt>
      <trkpt lat="49.15663" lon="4.06323">
        <ele>153</ele>
        <time>2019-06-27T22:08:33Z</time>
      </trkpt>
      <trkpt lat="49.15662" lon="4.06315">
        <ele>154</ele>
        <time>2019-06-27T22:08:34Z</time>
      </trkpt>
      <trkpt lat="49.15662" lon="4.06305">
        <ele>154</ele>
        <time>2019-06-27T22:08:35Z</time>
      </trkpt>
      <trkpt lat="49.15665" lon="4.06293">
        <ele>154</ele>
        <time>2019-06-27T22:08:36Z</time>
      </trkpt>
      <trkpt lat="49.1567" lon="4.06283">
        <ele>153</ele>
        <time>2019-06-27T22:08:38Z</time>
      </trkpt>
      <trkpt lat="49.15694" lon="4.06263">
        <ele>153</ele>
        <time>2019-06-27T22:08:43Z</time>
      </trkpt>
      <trkpt lat="49.15716" lon="4.06242">
        <ele>152</ele>
        <time>2019-06-27T22:08:47Z</time>
      </trkpt>
      <trkpt lat="49.15734" lon="4.06218">
        <ele>151</ele>
        <time>2019-06-27T22:08:52Z</time>
      </trkpt>
      <trkpt lat="49.15784" lon="4.0614">
        <ele>148</ele>
        <time>2019-06-27T22:09:04Z</time>
      </trkpt>
      <trkpt lat="49.15903" lon="4.05892">
        <ele>146</ele>
        <time>2019-06-27T22:09:40Z</time>
      </trkpt>
      <trkpt lat="49.15912" lon="4.05869">
        <ele>146</ele>
        <time>2019-06-27T22:09:43Z</time>
      </trkpt>
      <trkpt lat="49.15953" lon="4.05742">
        <ele>152</ele>
        <time>2019-06-27T22:10:00Z</time>
      </trkpt>
      <trkpt lat="49.15992" lon="4.05653">
        <ele>151</ele>
        <time>2019-06-27T22:10:12Z</time>
      </trkpt>
      <trkpt lat="49.16199" lon="4.0526">
        <ele>160</ele>
        <time>2019-06-27T22:11:11Z</time>
      </trkpt>
      <trkpt lat="49.16221" lon="4.0522">
        <ele>162</ele>
        <time>2019-06-27T22:11:17Z</time>
      </trkpt>
      <trkpt lat="49.16311" lon="4.05046">
        <ele>169</ele>
        <time>2019-06-27T22:11:43Z</time>
      </trkpt>
      <trkpt lat="49.16334" lon="4.04992">
        <ele>169</ele>
        <time>2019-06-27T22:11:50Z</time>
      </trkpt>
      <trkpt lat="49.16344" lon="4.04952">
        <ele>170</ele>
        <time>2019-06-27T22:11:55Z</time>
      </trkpt>
      <trkpt lat="49.1635" lon="4.04909">
        <ele>170</ele>
        <time>2019-06-27T22:12:00Z</time>
      </trkpt>
      <trkpt lat="49.16361" lon="4.04787">
        <ele>168</ele>
        <time>2019-06-27T22:12:15Z</time>
      </trkpt>
      <trkpt lat="49.16361" lon="4.04764">
        <ele>168</ele>
        <time>2019-06-27T22:12:17Z</time>
      </trkpt>
      <trkpt lat="49.16351" lon="4.04662">
        <ele>170</ele>
        <time>2019-06-27T22:12:29Z</time>
      </trkpt>
      <trkpt lat="49.16356" lon="4.04475">
        <ele>172</ele>
        <time>2019-06-27T22:12:51Z</time>
      </trkpt>
      <trkpt lat="49.16357" lon="4.04372">
        <ele>171</ele>
        <time>2019-06-27T22:13:03Z</time>
      </trkpt>
      <trkpt lat="49.16355" lon="4.04345">
        <ele>170</ele>
        <time>2019-06-27T22:13:06Z</time>
      </trkpt>
      <trkpt lat="49.16349" lon="4.04319">
        <ele>171</ele>
        <time>2019-06-27T22:13:09Z</time>
      </trkpt>
      <trkpt lat="49.16344" lon="4.04307">
        <ele>171</ele>
        <time>2019-06-27T22:13:11Z</time>
      </trkpt>
      <trkpt lat="49.16315" lon="4.04255">
        <ele>175</ele>
        <time>2019-06-27T22:13:19Z</time>
      </trkpt>
      <trkpt lat="49.16292" lon="4.04206">
        <ele>181</ele>
        <time>2019-06-27T22:13:26Z</time>
      </trkpt>
      <trkpt lat="49.16279" lon="4.04165">
        <ele>184</ele>
        <time>2019-06-27T22:13:31Z</time>
      </trkpt>
      <trkpt lat="49.16272" lon="4.04124">
        <ele>188</ele>
        <time>2019-06-27T22:13:36Z</time>
      </trkpt>
      <trkpt lat="49.16269" lon="4.04079">
        <ele>191</ele>
        <time>2019-06-27T22:13:42Z</time>
      </trkpt>
      <trkpt lat="49.16269" lon="4.0406">
        <ele>191</ele>
        <time>2019-06-27T22:13:44Z</time>
      </trkpt>
      <trkpt lat="49.16274" lon="4.04011">
        <ele>192</ele>
        <time>2019-06-27T22:13:50Z</time>
      </trkpt>
      <trkpt lat="49.16283" lon="4.03971">
        <ele>192</ele>
        <time>2019-06-27T22:13:55Z</time>
      </trkpt>
      <trkpt lat="49.16294" lon="4.03938">
        <ele>191</ele>
        <time>2019-06-27T22:13:59Z</time>
      </trkpt>
      <trkpt lat="49.1631" lon="4.03903">
        <ele>189</ele>
        <time>2019-06-27T22:14:04Z</time>
      </trkpt>
      <trkpt lat="49.16322" lon="4.03882">
        <ele>189</ele>
        <time>2019-06-27T22:14:07Z</time>
      </trkpt>
      <trkpt lat="49.16376" lon="4.03796">
        <ele>192</ele>
        <time>2019-06-27T22:14:21Z</time>
      </trkpt>
      <trkpt lat="49.16397" lon="4.03751">
        <ele>193</ele>
        <time>2019-06-27T22:14:27Z</time>
      </trkpt>
      <trkpt lat="49.16413" lon="4.03701">
        <ele>195</ele>
        <time>2019-06-27T22:14:34Z</time>
      </trkpt>
      <trkpt lat="49.1642" lon="4.03663">
        <ele>198</ele>
        <time>2019-06-27T22:14:38Z</time>
      </trkpt>
      <trkpt lat="49.1644" lon="4.03535">
        <ele>196</ele>
        <time>2019-06-27T22:14:54Z</time>
      </trkpt>
      <trkpt lat="49.16454" lon="4.03478">
        <ele>193</ele>
        <time>2019-06-27T22:15:01Z</time>
      </trkpt>
      <trkpt lat="49.1648" lon="4.0341">
        <ele>190</ele>
        <time>2019-06-27T22:15:10Z</time>
      </trkpt>
      <trkpt lat="49.1652" lon="4.03335">
        <ele>189</ele>
        <time>2019-06-27T22:15:21Z</time>
      </trkpt>
      <trkpt lat="49.16547" lon="4.03274">
        <ele>191</ele>
        <time>2019-06-27T22:15:30Z</time>
      </trkpt>
      <trkpt lat="49.16589" lon="4.03157">
        <ele>195</ele>
        <time>2019-06-27T22:15:45Z</time>
      </trkpt>
      <trkpt lat="49.16597" lon="4.03127">
        <ele>197</ele>
        <time>2019-06-27T22:15:49Z</time>
      </trkpt>
      <trkpt lat="49.16602" lon="4.03082">
        <ele>200</ele>
        <time>2019-06-27T22:15:54Z</time>
      </trkpt>
      <trkpt lat="49.16605" lon="4.02882">
        <ele>193</ele>
        <time>2019-06-27T22:16:18Z</time>
      </trkpt>
      <trkpt lat="49.16603" lon="4.02844">
        <ele>192</ele>
        <time>2019-06-27T22:16:22Z</time>
      </trkpt>
      <trkpt lat="49.16606" lon="4.02786">
        <ele>190</ele>
        <time>2019-06-27T22:16:29Z</time>
      </trkpt>
      <trkpt lat="49.1661" lon="4.02737">
        <ele>187</ele>
        <time>2019-06-27T22:16:35Z</time>
      </trkpt>
      <trkpt lat="49.16614" lon="4.02716">
        <ele>186</ele>
        <time>2019-06-27T22:16:37Z</time>
      </trkpt>
      <trkpt lat="49.16617" lon="4.02683">
        <ele>184</ele>
        <time>2019-06-27T22:16:41Z</time>
      </trkpt>
      <trkpt lat="49.16613" lon="4.02625">
        <ele>183</ele>
        <time>2019-06-27T22:16:48Z</time>
      </trkpt>
      <trkpt lat="49.1661" lon="4.02602">
        <ele>183</ele>
        <time>2019-06-27T22:16:51Z</time>
      </trkpt>
      <trkpt lat="49.16593" lon="4.02538">
        <ele>184</ele>
        <time>2019-06-27T22:16:59Z</time>
      </trkpt>
      <trkpt lat="49.16579" lon="4.02493">
        <ele>184</ele>
        <time>2019-06-27T22:17:04Z</time>
      </trkpt>
      <trkpt lat="49.166" lon="4.02469">
        <ele>184</ele>
        <time>2019-06-27T22:17:09Z</time>
      </trkpt>
      <trkpt lat="49.16597" lon="4.02457">
        <ele>184</ele>
        <time>2019-06-27T22:17:11Z</time>
      </trkpt>
      <trkpt lat="49.1655" lon="4.02361">
        <ele>184</ele>
        <time>2019-06-27T22:17:25Z</time>
      </trkpt>
      <trkpt lat="49.16536" lon="4.02326">
        <ele>184</ele>
        <time>2019-06-27T22:17:29Z</time>
      </trkpt>
      <trkpt lat="49.16531" lon="4.02268">
        <ele>185</ele>
        <time>2019-06-27T22:17:36Z</time>
      </trkpt>
      <trkpt lat="49.16528" lon="4.02204">
        <ele>184</ele>
        <time>2019-06-27T22:17:44Z</time>
      </trkpt>
      <trkpt lat="49.16528" lon="4.02155">
        <ele>184</ele>
        <time>2019-06-27T22:17:49Z</time>
      </trkpt>
      <trkpt lat="49.16515" lon="4.02068">
        <ele>183</ele>
        <time>2019-06-27T22:18:00Z</time>
      </trkpt>
      <trkpt lat="49.16504" lon="4.02033">
        <ele>183</ele>
        <time>2019-06-27T22:18:04Z</time>
      </trkpt>
      <trkpt lat="49.16491" lon="4.02014">
        <ele>182</ele>
        <time>2019-06-27T22:18:07Z</time>
      </trkpt>
      <trkpt lat="49.16433" lon="4.01967">
        <ele>182</ele>
        <time>2019-06-27T22:18:19Z</time>
      </trkpt>
      <trkpt lat="49.16423" lon="4.01953">
        <ele>182</ele>
        <time>2019-06-27T22:18:21Z</time>
      </trkpt>
      <trkpt lat="49.16414" lon="4.01928">
        <ele>181</ele>
        <time>2019-06-27T22:18:25Z</time>
      </trkpt>
      <trkpt lat="49.1641" lon="4.01894">
        <ele>181</ele>
        <time>2019-06-27T22:18:29Z</time>
      </trkpt>
      <trkpt lat="49.1641" lon="4.01822">
        <ele>181</ele>
        <time>2019-06-27T22:18:37Z</time>
      </trkpt>
      <trkpt lat="49.1641" lon="4.01751">
        <ele>183</ele>
        <time>2019-06-27T22:18:45Z</time>
      </trkpt>
      <trkpt lat="49.16414" lon="4.01707">
        <ele>184</ele>
        <time>2019-06-27T22:18:51Z</time>
      </trkpt>
      <trkpt lat="49.16421" lon="4.01663">
        <ele>185</ele>
        <time>2019-06-27T22:18:56Z</time>
      </trkpt>
      <trkpt lat="49.16434" lon="4.01611">
        <ele>184</ele>
        <time>2019-06-27T22:19:02Z</time>
      </trkpt>
      <trkpt lat="49.16455" lon="4.01515">
        <ele>183</ele>
        <time>2019-06-27T22:19:14Z</time>
      </trkpt>
      <trkpt lat="49.16459" lon="4.01485">
        <ele>183</ele>
        <time>2019-06-27T22:19:18Z</time>
      </trkpt>
      <trkpt lat="49.1646" lon="4.01449">
        <ele>184</ele>
        <time>2019-06-27T22:19:22Z</time>
      </trkpt>
      <trkpt lat="49.16455" lon="4.01412">
        <ele>186</ele>
        <time>2019-06-27T22:19:26Z</time>
      </trkpt>
      <trkpt lat="49.16442" lon="4.01349">
        <ele>190</ele>
        <time>2019-06-27T22:19:34Z</time>
      </trkpt>
      <trkpt lat="49.16438" lon="4.01317">
        <ele>192</ele>
        <time>2019-06-27T22:19:38Z</time>
      </trkpt>
      <trkpt lat="49.16436" lon="4.01281">
        <ele>194</ele>
        <time>2019-06-27T22:19:42Z</time>
      </trkpt>
      <trkpt lat="49.16437" lon="4.01206">
        <ele>195</ele>
        <time>2019-06-27T22:19:51Z</time>
      </trkpt>
      <trkpt lat="49.16432" lon="4.01149">
        <ele>195</ele>
        <time>2019-06-27T22:19:57Z</time>
      </trkpt>
      <trkpt lat="49.16301" lon="4.01147">
        <ele>206</ele>
        <time>2019-06-27T22:20:21Z</time>
      </trkpt>
      <trkpt lat="49.16249" lon="4.01142">
        <ele>211</ele>
        <time>2019-06-27T22:20:30Z</time>
      </trkpt>
      <trkpt lat="49.16184" lon="4.01127">
        <ele>218</ele>
        <time>2019-06-27T22:20:42Z</time>
      </trkpt>
      <trkpt lat="49.16158" lon="4.01112">
        <ele>222</ele>
        <time>2019-06-27T22:20:47Z</time>
      </trkpt>
      <trkpt lat="49.16148" lon="4.01103">
        <ele>224</ele>
        <time>2019-06-27T22:20:49Z</time>
      </trkpt>
      <trkpt lat="49.16121" lon="4.01069">
        <ele>230</ele>
        <time>2019-06-27T22:20:55Z</time>
      </trkpt>
      <trkpt lat="49.16107" lon="4.01042">
        <ele>233</ele>
        <time>2019-06-27T22:20:59Z</time>
      </trkpt>
      <trkpt lat="49.16097" lon="4.01018">
        <ele>234</ele>
        <time>2019-06-27T22:21:02Z</time>
      </trkpt>
      <trkpt lat="49.16085" lon="4.0097">
        <ele>234</ele>
        <time>2019-06-27T22:21:08Z</time>
      </trkpt>
      <trkpt lat="49.16093" lon="4.00961">
        <ele>232</ele>
        <time>2019-06-27T22:21:10Z</time>
      </trkpt>
      <trkpt lat="49.16094" lon="4.0095">
        <ele>232</ele>
        <time>2019-06-27T22:21:11Z</time>
      </trkpt>
      <trkpt lat="49.16084" lon="4.00811">
        <ele>225</ele>
        <time>2019-06-27T22:21:28Z</time>
      </trkpt>
      <trkpt lat="49.16071" lon="4.00757">
        <ele>222</ele>
        <time>2019-06-27T22:21:34Z</time>
      </trkpt>
      <trkpt lat="49.16045" lon="4.00688">
        <ele>217</ele>
        <time>2019-06-27T22:21:43Z</time>
      </trkpt>
      <trkpt lat="49.16009" lon="4.00608">
        <ele>212</ele>
        <time>2019-06-27T22:21:55Z</time>
      </trkpt>
      <trkpt lat="49.15952" lon="4.00465">
        <ele>210</ele>
        <time>2019-06-27T22:22:14Z</time>
      </trkpt>
      <trkpt lat="49.15918" lon="4.00368">
        <ele>203</ele>
        <time>2019-06-27T22:22:27Z</time>
      </trkpt>
      <trkpt lat="49.15836" lon="4.00063">
        <ele>174</ele>
        <time>2019-06-27T22:23:05Z</time>
      </trkpt>
      <trkpt lat="49.15705" lon="3.99614">
        <ele>173</ele>
        <time>2019-06-27T22:24:03Z</time>
      </trkpt>
      <trkpt lat="49.15692" lon="3.99562">
        <ele>171</ele>
        <time>2019-06-27T22:24:09Z</time>
      </trkpt>
      <trkpt lat="49.15683" lon="3.99508">
        <ele>167</ele>
        <time>2019-06-27T22:24:16Z</time>
      </trkpt>
      <trkpt lat="49.1568" lon="3.99457">
        <ele>163</ele>
        <time>2019-06-27T22:24:22Z</time>
      </trkpt>
      <trkpt lat="49.15682" lon="3.99424">
        <ele>161</ele>
        <time>2019-06-27T22:24:25Z</time>
      </trkpt>
      <trkpt lat="49.15686" lon="3.99372">
        <ele>161</ele>
        <time>2019-06-27T22:24:32Z</time>
      </trkpt>
      <trkpt lat="49.15727" lon="3.99146">
        <ele>165</ele>
        <time>2019-06-27T22:24:59Z</time>
      </trkpt>
      <trkpt lat="49.15744" lon="3.99065">
        <ele>169</ele>
        <time>2019-06-27T22:25:09Z</time>
      </trkpt>
      <trkpt lat="49.1576" lon="3.98974">
        <ele>173</ele>
        <time>2019-06-27T22:25:20Z</time>
      </trkpt>
      <trkpt lat="49.15763" lon="3.98933">
        <ele>174</ele>
        <time>2019-06-27T22:25:24Z</time>
      </trkpt>
      <trkpt lat="49.15761" lon="3.98891">
        <ele>173</ele>
        <time>2019-06-27T22:25:29Z</time>
      </trkpt>
      <trkpt lat="49.15744" lon="3.98754">
        <ele>169</ele>
        <time>2019-06-27T22:25:46Z</time>
      </trkpt>
      <trkpt lat="49.15746" lon="3.98689">
        <ele>167</ele>
        <time>2019-06-27T22:25:53Z</time>
      </trkpt>
      <trkpt lat="49.15754" lon="3.98642">
        <ele>166</ele>
        <time>2019-06-27T22:25:59Z</time>
      </trkpt>
      <trkpt lat="49.15773" lon="3.98594">
        <ele>165</ele>
        <time>2019-06-27T22:26:05Z</time>
      </trkpt>
      <trkpt lat="49.15807" lon="3.98528">
        <ele>164</ele>
        <time>2019-06-27T22:26:15Z</time>
      </trkpt>
      <trkpt lat="49.15839" lon="3.98459">
        <ele>165</ele>
        <time>2019-06-27T22:26:25Z</time>
      </trkpt>
      <trkpt lat="49.15844" lon="3.98458">
        <ele>165</ele>
        <time>2019-06-27T22:26:26Z</time>
      </trkpt>
      <trkpt lat="49.15884" lon="3.98482">
        <ele>164</ele>
        <time>2019-06-27T22:26:34Z</time>
      </trkpt>
      <trkpt lat="49.15899" lon="3.98489">
        <ele>163</ele>
        <time>2019-06-27T22:26:36Z</time>
      </trkpt>
      <trkpt lat="49.1591" lon="3.98491">
        <ele>163</ele>
        <time>2019-06-27T22:26:38Z</time>
      </trkpt>
      <trkpt lat="49.15924" lon="3.98488">
        <ele>163</ele>
        <time>2019-06-27T22:26:41Z</time>
      </trkpt>
      <trkpt lat="49.15948" lon="3.98473">
        <ele>161</ele>
        <time>2019-06-27T22:26:45Z</time>
      </trkpt>
      <trkpt lat="49.15954" lon="3.98466">
        <ele>161</ele>
        <time>2019-06-27T22:26:47Z</time>
      </trkpt>
      <trkpt lat="49.15957" lon="3.98455">
        <ele>161</ele>
        <time>2019-06-27T22:26:48Z</time>
      </trkpt>
      <trkpt lat="49.15953" lon="3.98399">
        <ele>161</ele>
        <time>2019-06-27T22:26:55Z</time>
      </trkpt>
      <trkpt lat="49.15956" lon="3.98375">
        <ele>161</ele>
        <time>2019-06-27T22:26:58Z</time>
      </trkpt>
      <trkpt lat="49.15965" lon="3.98354">
        <ele>160</ele>
        <time>2019-06-27T22:27:00Z</time>
      </trkpt>
      <trkpt lat="49.16062" lon="3.9817">
        <ele>154</ele>
        <time>2019-06-27T22:27:28Z</time>
      </trkpt>
      <trkpt lat="49.16134" lon="3.98012">
        <ele>153</ele>
        <time>2019-06-27T22:27:50Z</time>
      </trkpt>
      <trkpt lat="49.16149" lon="3.97973">
        <ele>154</ele>
        <time>2019-06-27T22:27:56Z</time>
      </trkpt>
      <trkpt lat="49.16161" lon="3.97932">
        <ele>155</ele>
        <time>2019-06-27T22:28:01Z</time>
      </trkpt>
      <trkpt lat="49.16169" lon="3.9787">
        <ele>156</ele>
        <time>2019-06-27T22:28:08Z</time>
      </trkpt>
      <trkpt lat="49.16186" lon="3.97646">
        <ele>165</ele>
        <time>2019-06-27T22:28:34Z</time>
      </trkpt>
      <trkpt lat="49.16214" lon="3.97621">
        <ele>165</ele>
        <time>2019-06-27T22:28:40Z</time>
      </trkpt>
      <trkpt lat="49.16235" lon="3.97594">
        <ele>164</ele>
        <time>2019-06-27T22:28:45Z</time>
      </trkpt>
      <trkpt lat="49.16425" lon="3.97279">
        <ele>145</ele>
        <time>2019-06-27T22:29:35Z</time>
      </trkpt>
      <trkpt lat="49.16439" lon="3.9726">
        <ele>144</ele>
        <time>2019-06-27T22:29:38Z</time>
      </trkpt>
      <trkpt lat="49.16459" lon="3.97242">
        <ele>144</ele>
        <time>2019-06-27T22:29:42Z</time>
      </trkpt>
      <trkpt lat="49.16479" lon="3.9723">
        <ele>143</ele>
        <time>2019-06-27T22:29:46Z</time>
      </trkpt>
      <trkpt lat="49.165" lon="3.97225">
        <ele>142</ele>
        <time>2019-06-27T22:29:50Z</time>
      </trkpt>
      <trkpt lat="49.1677" lon="3.97236">
        <ele>149</ele>
        <time>2019-06-27T22:30:38Z</time>
      </trkpt>
      <trkpt lat="49.16801" lon="3.97229">
        <ele>149</ele>
        <time>2019-06-27T22:30:44Z</time>
      </trkpt>
      <trkpt lat="49.16802" lon="3.97233">
        <ele>149</ele>
        <time>2019-06-27T22:30:44Z</time>
      </trkpt>
      <trkpt lat="49.16809" lon="3.97239">
        <ele>149</ele>
        <time>2019-06-27T22:30:46Z</time>
      </trkpt>
      <trkpt lat="49.16816" lon="3.97235">
        <ele>149</ele>
        <time>2019-06-27T22:30:47Z</time>
      </trkpt>
      <trkpt lat="49.16818" lon="3.97227">
        <ele>149</ele>
        <time>2019-06-27T22:30:48Z</time>
      </trkpt>
      <trkpt lat="49.16816" lon="3.97219">
        <ele>149</ele>
        <time>2019-06-27T22:30:49Z</time>
      </trkpt>
      <trkpt lat="49.16809" lon="3.97213">
        <ele>149</ele>
        <time>2019-06-27T22:30:50Z</time>
      </trkpt>
      <trkpt lat="49.16813" lon="3.97179">
        <ele>150</ele>
        <time>2019-06-27T22:30:54Z</time>
      </trkpt>
      <trkpt lat="49.16821" lon="3.9715">
        <ele>150</ele>
        <time>2019-06-27T22:30:58Z</time>
      </trkpt>
      <trkpt lat="49.16905" lon="3.96882">
        <ele>142</ele>
        <time>2019-06-27T22:31:33Z</time>
      </trkpt>
      <trkpt lat="49.16968" lon="3.96687">
        <ele>137</ele>
        <time>2019-06-27T22:31:58Z</time>
      </trkpt>
      <trkpt lat="49.17118" lon="3.96247">
        <ele>135</ele>
        <time>2019-06-27T22:32:56Z</time>
      </trkpt>
      <trkpt lat="49.1714" lon="3.9619">
        <ele>137</ele>
        <time>2019-06-27T22:33:03Z</time>
      </trkpt>
      <trkpt lat="49.17151" lon="3.96163">
        <ele>138</ele>
        <time>2019-06-27T22:33:07Z</time>
      </trkpt>
      <trkpt lat="49.17173" lon="3.96118">
        <ele>139</ele>
        <time>2019-06-27T22:33:14Z</time>
      </trkpt>
      <trkpt lat="49.17282" lon="3.95924">
        <ele>140</ele>
        <time>2019-06-27T22:33:43Z</time>
      </trkpt>
      <trkpt lat="49.17315" lon="3.95862">
        <ele>141</ele>
        <time>2019-06-27T22:33:53Z</time>
      </trkpt>
      <trkpt lat="49.17439" lon="3.95576">
        <ele>141</ele>
        <time>2019-06-27T22:34:33Z</time>
      </trkpt>
      <trkpt lat="49.17514" lon="3.95411">
        <ele>139</ele>
        <time>2019-06-27T22:34:56Z</time>
      </trkpt>
      <trkpt lat="49.17529" lon="3.95383">
        <ele>139</ele>
        <time>2019-06-27T22:35:00Z</time>
      </trkpt>
      <trkpt lat="49.17541" lon="3.95368">
        <ele>140</ele>
        <time>2019-06-27T22:35:03Z</time>
      </trkpt>
      <trkpt lat="49.17552" lon="3.95358">
        <ele>140</ele>
        <time>2019-06-27T22:35:05Z</time>
      </trkpt>
      <trkpt lat="49.17564" lon="3.95351">
        <ele>140</ele>
        <time>2019-06-27T22:35:07Z</time>
      </trkpt>
      <trkpt lat="49.17584" lon="3.95346">
        <ele>141</ele>
        <time>2019-06-27T22:35:11Z</time>
      </trkpt>
      <trkpt lat="49.17601" lon="3.95348">
        <ele>141</ele>
        <time>2019-06-27T22:35:14Z</time>
      </trkpt>
      <trkpt lat="49.18056" lon="3.95456">
        <ele>151</ele>
        <time>2019-06-27T22:36:36Z</time>
      </trkpt>
      <trkpt lat="49.18096" lon="3.9546">
        <ele>151</ele>
        <time>2019-06-27T22:36:43Z</time>
      </trkpt>
      <trkpt lat="49.18112" lon="3.95459">
        <ele>151</ele>
        <time>2019-06-27T22:36:46Z</time>
      </trkpt>
      <trkpt lat="49.18209" lon="3.95433">
        <ele>148</ele>
        <time>2019-06-27T22:37:04Z</time>
      </trkpt>
      <trkpt lat="49.18332" lon="3.95397">
        <ele>143</ele>
        <time>2019-06-27T22:37:26Z</time>
      </trkpt>
      <trkpt lat="49.18368" lon="3.95384">
        <ele>142</ele>
        <time>2019-06-27T22:37:32Z</time>
      </trkpt>
      <trkpt lat="49.18415" lon="3.95356">
        <ele>143</ele>
        <time>2019-06-27T22:37:41Z</time>
      </trkpt>
      <trkpt lat="49.18536" lon="3.95267">
        <ele>148</ele>
        <time>2019-06-27T22:38:05Z</time>
      </trkpt>
      <trkpt lat="49.18552" lon="3.95257">
        <ele>147</ele>
        <time>2019-06-27T22:38:08Z</time>
      </trkpt>
      <trkpt lat="49.18568" lon="3.95253">
        <ele>147</ele>
        <time>2019-06-27T22:38:11Z</time>
      </trkpt>
      <trkpt lat="49.18621" lon="3.95247">
        <ele>145</ele>
        <time>2019-06-27T22:38:21Z</time>
      </trkpt>
      <trkpt lat="49.18669" lon="3.95233">
        <ele>145</ele>
        <time>2019-06-27T22:38:29Z</time>
      </trkpt>
      <trkpt lat="49.18673" lon="3.95236">
        <ele>145</ele>
        <time>2019-06-27T22:38:30Z</time>
      </trkpt>
      <trkpt lat="49.18677" lon="3.95241">
        <ele>145</ele>
        <time>2019-06-27T22:38:31Z</time>
      </trkpt>
      <trkpt lat="49.18688" lon="3.95321">
        <ele>144</ele>
        <time>2019-06-27T22:38:41Z</time>
      </trkpt>
      <trkpt lat="49.18751" lon="3.95469">
        <ele>141</ele>
        <time>2019-06-27T22:39:01Z</time>
      </trkpt>
      <trkpt lat="49.18788" lon="3.95546">
        <ele>141</ele>
        <time>2019-06-27T22:39:12Z</time>
      </trkpt>
      <trkpt lat="49.18801" lon="3.95579">
        <ele>141</ele>
        <time>2019-06-27T22:39:17Z</time>
      </trkpt>
      <trkpt lat="49.18815" lon="3.9561">
        <ele>141</ele>
        <time>2019-06-27T22:39:21Z</time>
      </trkpt>
      <trkpt lat="49.18827" lon="3.95633">
        <ele>141</ele>
        <time>2019-06-27T22:39:24Z</time>
      </trkpt>
      <trkpt lat="49.18837" lon="3.95646">
        <ele>141</ele>
        <time>2019-06-27T22:39:27Z</time>
      </trkpt>
      <trkpt lat="49.18868" lon="3.9568">
        <ele>142</ele>
        <time>2019-06-27T22:39:34Z</time>
      </trkpt>
      <trkpt lat="49.18981" lon="3.95798">
        <ele>144</ele>
        <time>2019-06-27T22:39:58Z</time>
      </trkpt>
      <trkpt lat="49.19003" lon="3.95815">
        <ele>144</ele>
        <time>2019-06-27T22:40:02Z</time>
      </trkpt>
      <trkpt lat="49.19016" lon="3.95823">
        <ele>144</ele>
        <time>2019-06-27T22:40:05Z</time>
      </trkpt>
      <trkpt lat="49.19048" lon="3.95831">
        <ele>143</ele>
        <time>2019-06-27T22:40:11Z</time>
      </trkpt>
      <trkpt lat="49.19067" lon="3.95829">
        <ele>143</ele>
        <time>2019-06-27T22:40:14Z</time>
      </trkpt>
      <trkpt lat="49.19078" lon="3.95824">
        <ele>143</ele>
        <time>2019-06-27T22:40:16Z</time>
      </trkpt>
      <trkpt lat="49.19098" lon="3.95816">
        <ele>142</ele>
        <time>2019-06-27T22:40:20Z</time>
      </trkpt>
      <trkpt lat="49.19114" lon="3.95803">
        <ele>141</ele>
        <time>2019-06-27T22:40:23Z</time>
      </trkpt>
      <trkpt lat="49.19159" lon="3.95741">
        <ele>136</ele>
        <time>2019-06-27T22:40:34Z</time>
      </trkpt>
      <trkpt lat="49.19215" lon="3.95693">
        <ele>131</ele>
        <time>2019-06-27T22:40:45Z</time>
      </trkpt>
      <trkpt lat="49.19271" lon="3.95669">
        <ele>128</ele>
        <time>2019-06-27T22:40:55Z</time>
      </trkpt>
      <trkpt lat="49.19378" lon="3.95669">
        <ele>123</ele>
        <time>2019-06-27T22:41:15Z</time>
      </trkpt>
      <trkpt lat="49.19416" lon="3.95665">
        <ele>122</ele>
        <time>2019-06-27T22:41:21Z</time>
      </trkpt>
      <trkpt lat="49.19448" lon="3.95645">
        <ele>122</ele>
        <time>2019-06-27T22:41:27Z</time>
      </trkpt>
      <trkpt lat="49.19534" lon="3.95527">
        <ele>120</ele>
        <time>2019-06-27T22:41:48Z</time>
      </trkpt>
      <trkpt lat="49.19657" lon="3.95337">
        <ele>120</ele>
        <time>2019-06-27T22:42:19Z</time>
      </trkpt>
      <trkpt lat="49.19675" lon="3.95313">
        <ele>121</ele>
        <time>2019-06-27T22:42:23Z</time>
      </trkpt>
      <trkpt lat="49.19708" lon="3.95379">
        <ele>119</ele>
        <time>2019-06-27T22:42:33Z</time>
      </trkpt>
      <trkpt lat="49.1975" lon="3.95473">
        <ele>116</ele>
        <time>2019-06-27T22:42:46Z</time>
      </trkpt>
      <trkpt lat="49.19764" lon="3.95499">
        <ele>115</ele>
        <time>2019-06-27T22:42:50Z</time>
      </trkpt>
      <trkpt lat="49.19786" lon="3.95533">
        <ele>113</ele>
        <time>2019-06-27T22:42:56Z</time>
      </trkpt>
      <trkpt lat="49.19812" lon="3.95569">
        <ele>112</ele>
        <time>2019-06-27T22:43:02Z</time>
      </trkpt>
      <trkpt lat="49.19877" lon="3.95643">
        <ele>111</ele>
        <time>2019-06-27T22:43:16Z</time>
      </trkpt>
      <trkpt lat="49.19888" lon="3.95679">
        <ele>111</ele>
        <time>2019-06-27T22:43:21Z</time>
      </trkpt>
      <trkpt lat="49.19961" lon="3.95866">
        <ele>107</ele>
        <time>2019-06-27T22:43:46Z</time>
      </trkpt>
      <trkpt lat="49.20092" lon="3.96138">
        <ele>105</ele>
        <time>2019-06-27T22:44:26Z</time>
      </trkpt>
      <trkpt lat="49.20134" lon="3.96215">
        <ele>104</ele>
        <time>2019-06-27T22:44:37Z</time>
      </trkpt>
      <trkpt lat="49.2024" lon="3.96391">
        <ele>99</ele>
        <time>2019-06-27T22:45:05Z</time>
      </trkpt>
      <trkpt lat="49.2029" lon="3.96468">
        <ele>97</ele>
        <time>2019-06-27T22:45:18Z</time>
      </trkpt>
      <trkpt lat="49.20354" lon="3.96596">
        <ele>95</ele>
        <time>2019-06-27T22:45:36Z</time>
      </trkpt>
      <trkpt lat="49.2037" lon="3.96644">
        <ele>94</ele>
        <time>2019-06-27T22:45:43Z</time>
      </trkpt>
      <trkpt lat="49.20378" lon="3.9667">
        <ele>94</ele>
        <time>2019-06-27T22:45:46Z</time>
      </trkpt>
      <trkpt lat="49.2039" lon="3.9673">
        <ele>94</ele>
        <time>2019-06-27T22:45:53Z</time>
      </trkpt>
      <trkpt lat="49.20428" lon="3.9694">
        <ele>93</ele>
        <time>2019-06-27T22:46:19Z</time>
      </trkpt>
      <trkpt lat="49.20442" lon="3.96993">
        <ele>92</ele>
        <time>2019-06-27T22:46:25Z</time>
      </trkpt>
      <trkpt lat="49.20458" lon="3.97037">
        <ele>92</ele>
        <time>2019-06-27T22:46:31Z</time>
      </trkpt>
      <trkpt lat="49.2052" lon="3.97174">
        <ele>92</ele>
        <time>2019-06-27T22:46:51Z</time>
      </trkpt>
      <trkpt lat="49.20553" lon="3.97231">
        <ele>92</ele>
        <time>2019-06-27T22:46:59Z</time>
      </trkpt>
      <trkpt lat="49.20672" lon="3.97407">
        <ele>92</ele>
        <time>2019-06-27T22:47:29Z</time>
      </trkpt>
      <trkpt lat="49.20746" lon="3.97505">
        <ele>92</ele>
        <time>2019-06-27T22:47:46Z</time>
      </trkpt>
      <trkpt lat="49.20856" lon="3.97644">
        <ele>93</ele>
        <time>2019-06-27T22:48:12Z</time>
      </trkpt>
      <trkpt lat="49.20885" lon="3.97671">
        <ele>94</ele>
        <time>2019-06-27T22:48:18Z</time>
      </trkpt>
      <trkpt lat="49.21228" lon="3.97931">
        <ele>88</ele>
        <time>2019-06-27T22:49:26Z</time>
      </trkpt>
      <trkpt lat="49.21242" lon="3.97944">
        <ele>87</ele>
        <time>2019-06-27T22:49:29Z</time>
      </trkpt>
      <trkpt lat="49.21338" lon="3.98082">
        <ele>87</ele>
        <time>2019-06-27T22:49:52Z</time>
      </trkpt>
      <trkpt lat="49.21558" lon="3.98365">
        <ele>86</ele>
        <time>2019-06-27T22:50:43Z</time>
      </trkpt>
      <trkpt lat="49.21571" lon="3.98386">
        <ele>86</ele>
        <time>2019-06-27T22:50:47Z</time>
      </trkpt>
      <trkpt lat="49.21585" lon="3.9842">
        <ele>86</ele>
        <time>2019-06-27T22:50:51Z</time>
      </trkpt>
      <trkpt lat="49.21591" lon="3.98439">
        <ele>85</ele>
        <time>2019-06-27T22:50:54Z</time>
      </trkpt>
      <trkpt lat="49.21597" lon="3.98479">
        <ele>84</ele>
        <time>2019-06-27T22:50:59Z</time>
      </trkpt>
      <trkpt lat="49.21598" lon="3.98505">
        <ele>84</ele>
        <time>2019-06-27T22:51:02Z</time>
      </trkpt>
      <trkpt lat="49.21597" lon="3.98534">
        <ele>83</ele>
        <time>2019-06-27T22:51:05Z</time>
      </trkpt>
      <trkpt lat="49.21588" lon="3.98582">
        <ele>83</ele>
        <time>2019-06-27T22:51:11Z</time>
      </trkpt>
      <trkpt lat="49.21349" lon="3.99245">
        <ele>85</ele>
        <time>2019-06-27T22:52:39Z</time>
      </trkpt>
      <trkpt lat="49.21309" lon="3.99351">
        <ele>86</ele>
        <time>2019-06-27T22:52:53Z</time>
      </trkpt>
      <trkpt lat="49.21292" lon="3.99386">
        <ele>86</ele>
        <time>2019-06-27T22:52:58Z</time>
      </trkpt>
      <trkpt lat="49.21274" lon="3.99416">
        <ele>87</ele>
        <time>2019-06-27T22:53:03Z</time>
      </trkpt>
      <trkpt lat="49.21252" lon="3.99443">
        <ele>88</ele>
        <time>2019-06-27T22:53:08Z</time>
      </trkpt>
      <trkpt lat="49.21238" lon="3.99457">
        <ele>89</ele>
        <time>2019-06-27T22:53:11Z</time>
      </trkpt>
      <trkpt lat="49.21229" lon="3.99472">
        <ele>90</ele>
        <time>2019-06-27T22:53:13Z</time>
      </trkpt>
      <trkpt lat="49.21223" lon="3.99488">
        <ele>90</ele>
        <time>2019-06-27T22:53:15Z</time>
      </trkpt>
      <trkpt lat="49.21221" lon="3.99519">
        <ele>91</ele>
        <time>2019-06-27T22:53:19Z</time>
      </trkpt>
      <trkpt lat="49.21223" lon="3.99532">
        <ele>91</ele>
        <time>2019-06-27T22:53:20Z</time>
      </trkpt>
      <trkpt lat="49.21227" lon="3.99546">
        <ele>91</ele>
        <time>2019-06-27T22:53:22Z</time>
      </trkpt>
      <trkpt lat="49.21233" lon="3.99561">
        <ele>90</ele>
        <time>2019-06-27T22:53:24Z</time>
      </trkpt>
      <trkpt lat="49.21313" lon="3.99643">
        <ele>89</ele>
        <time>2019-06-27T22:53:41Z</time>
      </trkpt>
      <trkpt lat="49.21406" lon="3.99733">
        <ele>88</ele>
        <time>2019-06-27T22:54:01Z</time>
      </trkpt>
      <trkpt lat="49.21425" lon="3.99759">
        <ele>88</ele>
        <time>2019-06-27T22:54:06Z</time>
      </trkpt>
      <trkpt lat="49.21435" lon="3.99777">
        <ele>88</ele>
        <time>2019-06-27T22:54:08Z</time>
      </trkpt>
      <trkpt lat="49.21441" lon="3.99797">
        <ele>89</ele>
        <time>2019-06-27T22:54:11Z</time>
      </trkpt>
      <trkpt lat="49.21448" lon="3.99813">
        <ele>89</ele>
        <time>2019-06-27T22:54:13Z</time>
      </trkpt>
      <trkpt lat="49.21455" lon="3.99821">
        <ele>88</ele>
        <time>2019-06-27T22:54:15Z</time>
      </trkpt>
      <trkpt lat="49.21459" lon="3.99803">
        <ele>88</ele>
        <time>2019-06-27T22:54:17Z</time>
      </trkpt>
      <trkpt lat="49.21466" lon="3.99787">
        <ele>88</ele>
        <time>2019-06-27T22:54:19Z</time>
      </trkpt>
      <trkpt lat="49.21482" lon="3.99772">
        <ele>87</ele>
        <time>2019-06-27T22:54:22Z</time>
      </trkpt>
      <trkpt lat="49.21505" lon="3.99767">
        <ele>87</ele>
        <time>2019-06-27T22:54:27Z</time>
      </trkpt>
      <trkpt lat="49.21515" lon="3.99774">
        <ele>87</ele>
        <time>2019-06-27T22:54:28Z</time>
      </trkpt>
      <trkpt lat="49.21525" lon="3.99783">
        <ele>87</ele>
        <time>2019-06-27T22:54:31Z</time>
      </trkpt>
      <trkpt lat="49.21532" lon="3.99796">
        <ele>87</ele>
        <time>2019-06-27T22:54:33Z</time>
      </trkpt>
      <trkpt lat="49.21539" lon="3.99814">
        <ele>87</ele>
        <time>2019-06-27T22:54:35Z</time>
      </trkpt>
      <trkpt lat="49.21548" lon="3.99805">
        <ele>86</ele>
        <time>2019-06-27T22:54:37Z</time>
      </trkpt>
      <trkpt lat="49.21571" lon="3.99786">
        <ele>86</ele>
        <time>2019-06-27T22:54:42Z</time>
      </trkpt>
      <trkpt lat="49.21668" lon="3.99719">
        <ele>84</ele>
        <time>2019-06-27T22:55:00Z</time>
      </trkpt>
      <trkpt lat="49.2168" lon="3.99716">
        <ele>84</ele>
        <time>2019-06-27T22:55:03Z</time>
      </trkpt>
      <trkpt lat="49.21699" lon="3.99721">
        <ele>84</ele>
        <time>2019-06-27T22:55:06Z</time>
      </trkpt>
      <trkpt lat="49.21741" lon="3.99755">
        <ele>83</ele>
        <time>2019-06-27T22:55:14Z</time>
      </trkpt>
      <trkpt lat="49.21759" lon="3.99777">
        <ele>83</ele>
        <time>2019-06-27T22:55:19Z</time>
      </trkpt>
      <trkpt lat="49.21768" lon="3.99798">
        <ele>83</ele>
        <time>2019-06-27T22:55:22Z</time>
      </trkpt>
      <trkpt lat="49.21773" lon="3.99802">
        <ele>83</ele>
        <time>2019-06-27T22:55:23Z</time>
      </trkpt>
      <trkpt lat="49.2178" lon="3.99801">
        <ele>83</ele>
        <time>2019-06-27T22:55:24Z</time>
      </trkpt>
      <trkpt lat="49.21792" lon="3.99804">
        <ele>83</ele>
        <time>2019-06-27T22:55:26Z</time>
      </trkpt>
      <trkpt lat="49.21811" lon="3.99815">
        <ele>83</ele>
        <time>2019-06-27T22:55:30Z</time>
      </trkpt>
      <trkpt lat="49.22114" lon="4.00097">
        <ele>83</ele>
        <time>2019-06-27T22:56:33Z</time>
      </trkpt>
      <trkpt lat="49.22131" lon="4.00121">
        <ele>83</ele>
        <time>2019-06-27T22:56:37Z</time>
      </trkpt>
      <trkpt lat="49.22138" lon="4.00143">
        <ele>83</ele>
        <time>2019-06-27T22:56:40Z</time>
      </trkpt>
      <trkpt lat="49.22144" lon="4.00148">
        <ele>83</ele>
        <time>2019-06-27T22:56:41Z</time>
      </trkpt>
      <trkpt lat="49.2216" lon="4.00147">
        <ele>83</ele>
        <time>2019-06-27T22:56:44Z</time>
      </trkpt>
      <trkpt lat="49.2218" lon="4.00159">
        <ele>83</ele>
        <time>2019-06-27T22:56:47Z</time>
      </trkpt>
      <trkpt lat="49.22497" lon="4.00453">
        <ele>83</ele>
        <time>2019-06-27T22:57:53Z</time>
      </trkpt>
      <trkpt lat="49.22514" lon="4.00474">
        <ele>84</ele>
        <time>2019-06-27T22:57:57Z</time>
      </trkpt>
      <trkpt lat="49.22522" lon="4.00488">
        <ele>85</ele>
        <time>2019-06-27T22:57:59Z</time>
      </trkpt>
      <trkpt lat="49.22528" lon="4.00511">
        <ele>85</ele>
        <time>2019-06-27T22:58:02Z</time>
      </trkpt>
      <trkpt lat="49.22532" lon="4.00518">
        <ele>85</ele>
        <time>2019-06-27T22:58:03Z</time>
      </trkpt>
      <trkpt lat="49.22539" lon="4.00524">
        <ele>85</ele>
        <time>2019-06-27T22:58:05Z</time>
      </trkpt>
      <trkpt lat="49.2255" lon="4.00524">
        <ele>85</ele>
        <time>2019-06-27T22:58:07Z</time>
      </trkpt>
      <trkpt lat="49.22559" lon="4.00516">
        <ele>85</ele>
        <time>2019-06-27T22:58:09Z</time>
      </trkpt>
      <trkpt lat="49.22563" lon="4.00504">
        <ele>85</ele>
        <time>2019-06-27T22:58:10Z</time>
      </trkpt>
      <trkpt lat="49.22563" lon="4.00494">
        <ele>85</ele>
        <time>2019-06-27T22:58:11Z</time>
      </trkpt>
      <trkpt lat="49.22561" lon="4.00482">
        <ele>85</ele>
        <time>2019-06-27T22:58:13Z</time>
      </trkpt>
      <trkpt lat="49.2256" lon="4.00463">
        <ele>85</ele>
        <time>2019-06-27T22:58:15Z</time>
      </trkpt>
      <trkpt lat="49.22567" lon="4.00431">
        <ele>85</ele>
        <time>2019-06-27T22:58:19Z</time>
      </trkpt>
      <trkpt lat="49.22637" lon="4.00216">
        <ele>83</ele>
        <time>2019-06-27T22:58:47Z</time>
      </trkpt>
      <trkpt lat="49.22843" lon="3.99607">
        <ele>81</ele>
        <time>2019-06-27T23:00:07Z</time>
      </trkpt>
      <trkpt lat="49.22856" lon="3.99563">
        <ele>80</ele>
        <time>2019-06-27T23:00:12Z</time>
      </trkpt>
      <trkpt lat="49.22861" lon="3.99567">
        <ele>80</ele>
        <time>2019-06-27T23:00:13Z</time>
      </trkpt>
      <trkpt lat="49.22867" lon="3.99567">
        <ele>80</ele>
        <time>2019-06-27T23:00:14Z</time>
      </trkpt>
      <trkpt lat="49.22873" lon="3.99565">
        <ele>80</ele>
        <time>2019-06-27T23:00:15Z</time>
      </trkpt>
      <trkpt lat="49.22881" lon="3.99554">
        <ele>80</ele>
        <time>2019-06-27T23:00:17Z</time>
      </trkpt>
      <trkpt lat="49.22883" lon="3.99539">
        <ele>79</ele>
        <time>2019-06-27T23:00:19Z</time>
      </trkpt>
      <trkpt lat="49.22905" lon="3.99538">
        <ele>79</ele>
        <time>2019-06-27T23:00:23Z</time>
      </trkpt>
      <trkpt lat="49.22918" lon="3.99541">
        <ele>79</ele>
        <time>2019-06-27T23:00:25Z</time>
      </trkpt>
      <trkpt lat="49.22933" lon="3.99547">
        <ele>79</ele>
        <time>2019-06-27T23:00:28Z</time>
      </trkpt>
      <trkpt lat="49.23118" lon="3.99723">
        <ele>81</ele>
        <time>2019-06-27T23:01:07Z</time>
      </trkpt>
      <trkpt lat="49.2319" lon="3.99786">
        <ele>80</ele>
        <time>2019-06-27T23:01:22Z</time>
      </trkpt>
      <trkpt lat="49.23253" lon="3.99833">
        <ele>80</ele>
        <time>2019-06-27T23:01:34Z</time>
      </trkpt>
      <trkpt lat="49.23323" lon="3.99879">
        <ele>81</ele>
        <time>2019-06-27T23:01:48Z</time>
      </trkpt>
      <trkpt lat="49.23353" lon="3.99914">
        <ele>81</ele>
        <time>2019-06-27T23:01:54Z</time>
      </trkpt>
      <trkpt lat="49.23355" lon="3.99926">
        <ele>81</ele>
        <time>2019-06-27T23:01:56Z</time>
      </trkpt>
      <trkpt lat="49.23358" lon="3.99931">
        <ele>81</ele>
        <time>2019-06-27T23:01:57Z</time>
      </trkpt>
      <trkpt lat="49.23357" lon="3.99972">
        <ele>80</ele>
        <time>2019-06-27T23:02:01Z</time>
      </trkpt>
      <trkpt lat="49.23324" lon="4.00031">
        <ele>79</ele>
        <time>2019-06-27T23:02:10Z</time>
      </trkpt>
      <trkpt lat="49.23302" lon="4.00091">
        <ele>79</ele>
        <time>2019-06-27T23:02:18Z</time>
      </trkpt>
      <trkpt lat="49.23287" lon="4.00146">
        <ele>81</ele>
        <time>2019-06-27T23:02:25Z</time>
      </trkpt>
      <trkpt lat="49.23278" lon="4.00213">
        <ele>84</ele>
        <time>2019-06-27T23:02:33Z</time>
      </trkpt>
      <trkpt lat="49.23276" lon="4.00246">
        <ele>86</ele>
        <time>2019-06-27T23:02:37Z</time>
      </trkpt>
      <trkpt lat="49.23276" lon="4.00285">
        <ele>87</ele>
        <time>2019-06-27T23:02:42Z</time>
      </trkpt>
      <trkpt lat="49.23281" lon="4.00374">
        <ele>88</ele>
        <time>2019-06-27T23:02:52Z</time>
      </trkpt>
    </trkseg>
  </trk>
</gpx>